<?xml version="1.0" encoding="UTF-8" standalone="no" ?>
<gpx xmlns="http://www.topografix.com/GPX/1/1" xmlns:xsi="http://www.w3.org/2001/XMLSchema-instance" xsi:schemaLocation="http://www.topografix.com/GPX/1/1 http://www.topografix.com/GPX/1/1/gpx.xsd" version="1.1" creator="VisuGPX - https://www.visugpx.com">
  <metadata>
    <name>sthxhg</name>
    <desc><![CDATA[dtwyxhgdfhwsdhgsewrhg]]></desc>
  </metadata>
  <wpt lat="49.10009" lon="6.93447">
    <ele>251</ele>
    <name><![CDATA[Pause à 17/3 09:14]]></name>
    <desc><![CDATA[Pause de 2min 10s]]></desc>
  </wpt>
  <wpt lat="49.09153" lon="6.92173">
    <ele>255</ele>
    <name><![CDATA[Pause à 17/3 09:30]]></name>
    <desc><![CDATA[Pause de 1min 10s]]></desc>
  </wpt>
  <wpt lat="49.08311" lon="6.92784">
    <ele>256</ele>
    <name><![CDATA[Pause à 17/3 09:42]]></name>
    <desc><![CDATA[Pause de 1min 40s]]></desc>
  </wpt>
  <wpt lat="49.07779" lon="6.93566">
    <ele>256</ele>
    <name><![CDATA[Pause à 17/3 09:53]]></name>
    <desc><![CDATA[Pause de 1min 10s]]></desc>
  </wpt>
  <wpt lat="49.07962" lon="6.94182">
    <ele>246</ele>
    <name><![CDATA[Pause à 17/3 10:01]]></name>
    <desc><![CDATA[Pause de 3min 55s]]></desc>
  </wpt>
  <wpt lat="49.08791" lon="6.94957">
    <ele>241</ele>
    <name><![CDATA[Pause à 17/3 10:18]]></name>
    <desc><![CDATA[Pause de 2min 35s]]></desc>
  </wpt>
  <wpt lat="49.08858" lon="6.95091">
    <ele>250</ele>
    <name><![CDATA[Pause à 17/3 10:21]]></name>
    <desc><![CDATA[Pause de 1min 10s]]></desc>
  </wpt>
  <wpt lat="49.08954" lon="6.95334">
    <ele>240</ele>
    <name><![CDATA[Pause à 17/3 10:25]]></name>
    <desc><![CDATA[Pause de 1min 45s]]></desc>
  </wpt>
  <wpt lat="49.09003" lon="6.95041">
    <ele>231</ele>
    <name><![CDATA[Pause à 17/3 10:28]]></name>
    <desc><![CDATA[Pause de 1min 15s]]></desc>
  </wpt>
  <wpt lat="49.09051" lon="6.94094">
    <ele>239</ele>
    <name><![CDATA[Pause à 17/3 10:39]]></name>
    <desc><![CDATA[Pause de 1min 10s]]></desc>
  </wpt>
  <wpt lat="49.09174" lon="6.9407">
    <ele>239</ele>
    <name><![CDATA[Pause à 17/3 10:42]]></name>
    <desc><![CDATA[Pause de 1min 25s]]></desc>
  </wpt>
  <wpt lat="49.09605" lon="6.93771">
    <ele>262</ele>
    <name><![CDATA[Pause à 17/3 10:53]]></name>
    <desc><![CDATA[Pause de 2min 10s]]></desc>
  </wpt>
  <wpt lat="49.09873" lon="6.93441">
    <ele>253</ele>
    <name><![CDATA[Pause à 17/3 11:01]]></name>
    <desc><![CDATA[Pause de 1min 45s]]></desc>
  </wpt>
  <wpt lat="49.10336" lon="6.9354">
    <ele>268</ele>
    <name><![CDATA[Pause à 17/3 11:08]]></name>
    <desc><![CDATA[Pause de 1min 20s]]></desc>
  </wpt>
  <trk>
    <name><![CDATA[Guebenhouse]]></name>
    <trkseg>
      <trkpt lat="49.10373" lon="6.93568">
        <ele>262</ele>
        <time>2015-03-17T08:08:32Z</time>
      </trkpt>
      <trkpt lat="49.10373" lon="6.93568">
        <ele>262</ele>
        <time>2015-03-17T08:08:47Z</time>
      </trkpt>
      <trkpt lat="49.10368" lon="6.93564">
        <ele>263</ele>
        <time>2015-03-17T08:08:57Z</time>
      </trkpt>
      <trkpt lat="49.10361" lon="6.93558">
        <ele>265</ele>
        <time>2015-03-17T08:09:02Z</time>
      </trkpt>
      <trkpt lat="49.10354" lon="6.93555">
        <ele>266</ele>
        <time>2015-03-17T08:09:07Z</time>
      </trkpt>
      <trkpt lat="49.10348" lon="6.93553">
        <ele>266</ele>
        <time>2015-03-17T08:09:12Z</time>
      </trkpt>
      <trkpt lat="49.10341" lon="6.9355">
        <ele>265</ele>
        <time>2015-03-17T08:09:17Z</time>
      </trkpt>
      <trkpt lat="49.10335" lon="6.93548">
        <ele>266</ele>
        <time>2015-03-17T08:09:22Z</time>
      </trkpt>
      <trkpt lat="49.10323" lon="6.93541">
        <ele>266</ele>
        <time>2015-03-17T08:09:32Z</time>
      </trkpt>
      <trkpt lat="49.10318" lon="6.93538">
        <ele>264</ele>
        <time>2015-03-17T08:09:37Z</time>
      </trkpt>
      <trkpt lat="49.10305" lon="6.93535">
        <ele>265</ele>
        <time>2015-03-17T08:09:47Z</time>
      </trkpt>
      <trkpt lat="49.10292" lon="6.93531">
        <ele>265</ele>
        <time>2015-03-17T08:09:57Z</time>
      </trkpt>
      <trkpt lat="49.10285" lon="6.93528">
        <ele>264</ele>
        <time>2015-03-17T08:10:02Z</time>
      </trkpt>
      <trkpt lat="49.10279" lon="6.93526">
        <ele>265</ele>
        <time>2015-03-17T08:10:07Z</time>
      </trkpt>
      <trkpt lat="49.10266" lon="6.93519">
        <ele>266</ele>
        <time>2015-03-17T08:10:17Z</time>
      </trkpt>
      <trkpt lat="49.10259" lon="6.93518">
        <ele>266</ele>
        <time>2015-03-17T08:10:22Z</time>
      </trkpt>
      <trkpt lat="49.10254" lon="6.93516">
        <ele>265</ele>
        <time>2015-03-17T08:10:27Z</time>
      </trkpt>
      <trkpt lat="49.10242" lon="6.93513">
        <ele>265</ele>
        <time>2015-03-17T08:10:37Z</time>
      </trkpt>
      <trkpt lat="49.10237" lon="6.9351">
        <ele>264</ele>
        <time>2015-03-17T08:10:42Z</time>
      </trkpt>
      <trkpt lat="49.10231" lon="6.93508">
        <ele>265</ele>
        <time>2015-03-17T08:10:47Z</time>
      </trkpt>
      <trkpt lat="49.10224" lon="6.93504">
        <ele>265</ele>
        <time>2015-03-17T08:10:52Z</time>
      </trkpt>
      <trkpt lat="49.10217" lon="6.93502">
        <ele>263</ele>
        <time>2015-03-17T08:10:57Z</time>
      </trkpt>
      <trkpt lat="49.1021" lon="6.93501">
        <ele>263</ele>
        <time>2015-03-17T08:11:02Z</time>
      </trkpt>
      <trkpt lat="49.10203" lon="6.935">
        <ele>263</ele>
        <time>2015-03-17T08:11:07Z</time>
      </trkpt>
      <trkpt lat="49.10196" lon="6.93499">
        <ele>265</ele>
        <time>2015-03-17T08:11:12Z</time>
      </trkpt>
      <trkpt lat="49.10188" lon="6.93499">
        <ele>264</ele>
        <time>2015-03-17T08:11:17Z</time>
      </trkpt>
      <trkpt lat="49.10182" lon="6.93498">
        <ele>264</ele>
        <time>2015-03-17T08:11:22Z</time>
      </trkpt>
      <trkpt lat="49.10175" lon="6.93499">
        <ele>261</ele>
        <time>2015-03-17T08:11:27Z</time>
      </trkpt>
      <trkpt lat="49.1016" lon="6.93501">
        <ele>260</ele>
        <time>2015-03-17T08:11:37Z</time>
      </trkpt>
      <trkpt lat="49.10154" lon="6.93502">
        <ele>260</ele>
        <time>2015-03-17T08:11:42Z</time>
      </trkpt>
      <trkpt lat="49.10147" lon="6.93503">
        <ele>259</ele>
        <time>2015-03-17T08:11:47Z</time>
      </trkpt>
      <trkpt lat="49.1014" lon="6.93502">
        <ele>258</ele>
        <time>2015-03-17T08:11:52Z</time>
      </trkpt>
      <trkpt lat="49.10135" lon="6.935">
        <ele>258</ele>
        <time>2015-03-17T08:11:57Z</time>
      </trkpt>
      <trkpt lat="49.10122" lon="6.93497">
        <ele>255</ele>
        <time>2015-03-17T08:12:07Z</time>
      </trkpt>
      <trkpt lat="49.10115" lon="6.93495">
        <ele>255</ele>
        <time>2015-03-17T08:12:12Z</time>
      </trkpt>
      <trkpt lat="49.10111" lon="6.93493">
        <ele>253</ele>
        <time>2015-03-17T08:12:17Z</time>
      </trkpt>
      <trkpt lat="49.10103" lon="6.93492">
        <ele>252</ele>
        <time>2015-03-17T08:12:22Z</time>
      </trkpt>
      <trkpt lat="49.10094" lon="6.93487">
        <ele>254</ele>
        <time>2015-03-17T08:12:27Z</time>
      </trkpt>
      <trkpt lat="49.10085" lon="6.93483">
        <ele>253</ele>
        <time>2015-03-17T08:12:32Z</time>
      </trkpt>
      <trkpt lat="49.10078" lon="6.9348">
        <ele>253</ele>
        <time>2015-03-17T08:12:37Z</time>
      </trkpt>
      <trkpt lat="49.10072" lon="6.93474">
        <ele>253</ele>
        <time>2015-03-17T08:12:42Z</time>
      </trkpt>
      <trkpt lat="49.10066" lon="6.93473">
        <ele>253</ele>
        <time>2015-03-17T08:12:47Z</time>
      </trkpt>
      <trkpt lat="49.1006" lon="6.93469">
        <ele>253</ele>
        <time>2015-03-17T08:12:52Z</time>
      </trkpt>
      <trkpt lat="49.10053" lon="6.93465">
        <ele>252</ele>
        <time>2015-03-17T08:12:57Z</time>
      </trkpt>
      <trkpt lat="49.10046" lon="6.93461">
        <ele>251</ele>
        <time>2015-03-17T08:13:02Z</time>
      </trkpt>
      <trkpt lat="49.10038" lon="6.93458">
        <ele>251</ele>
        <time>2015-03-17T08:13:07Z</time>
      </trkpt>
      <trkpt lat="49.10032" lon="6.93456">
        <ele>251</ele>
        <time>2015-03-17T08:13:17Z</time>
      </trkpt>
      <trkpt lat="49.10025" lon="6.93453">
        <ele>252</ele>
        <time>2015-03-17T08:13:22Z</time>
      </trkpt>
      <trkpt lat="49.10009" lon="6.93447">
        <ele>251</ele>
        <time>2015-03-17T08:13:32Z</time>
      </trkpt>
      <trkpt lat="49.09996" lon="6.93446">
        <ele>243</ele>
        <time>2015-03-17T08:13:52Z</time>
      </trkpt>
      <trkpt lat="49.09986" lon="6.93442">
        <ele>245</ele>
        <time>2015-03-17T08:13:57Z</time>
      </trkpt>
      <trkpt lat="49.09978" lon="6.93435">
        <ele>246</ele>
        <time>2015-03-17T08:14:02Z</time>
      </trkpt>
      <trkpt lat="49.09974" lon="6.9343">
        <ele>248</ele>
        <time>2015-03-17T08:14:22Z</time>
      </trkpt>
      <trkpt lat="49.09965" lon="6.93413">
        <ele>248</ele>
        <time>2015-03-17T08:15:42Z</time>
      </trkpt>
      <trkpt lat="49.09961" lon="6.93406">
        <ele>247</ele>
        <time>2015-03-17T08:15:47Z</time>
      </trkpt>
      <trkpt lat="49.09953" lon="6.93397">
        <ele>243</ele>
        <time>2015-03-17T08:15:57Z</time>
      </trkpt>
      <trkpt lat="49.09949" lon="6.93391">
        <ele>239</ele>
        <time>2015-03-17T08:16:02Z</time>
      </trkpt>
      <trkpt lat="49.09945" lon="6.93382">
        <ele>243</ele>
        <time>2015-03-17T08:16:07Z</time>
      </trkpt>
      <trkpt lat="49.09936" lon="6.93361">
        <ele>245</ele>
        <time>2015-03-17T08:16:24Z</time>
      </trkpt>
      <trkpt lat="49.09924" lon="6.93344">
        <ele>244</ele>
        <time>2015-03-17T08:16:31Z</time>
      </trkpt>
      <trkpt lat="49.09917" lon="6.93329">
        <ele>249</ele>
        <time>2015-03-17T08:16:36Z</time>
      </trkpt>
      <trkpt lat="49.09911" lon="6.933">
        <ele>257</ele>
        <time>2015-03-17T08:16:46Z</time>
      </trkpt>
      <trkpt lat="49.09908" lon="6.93294">
        <ele>258</ele>
        <time>2015-03-17T08:16:51Z</time>
      </trkpt>
      <trkpt lat="49.099" lon="6.93284">
        <ele>258</ele>
        <time>2015-03-17T08:17:01Z</time>
      </trkpt>
      <trkpt lat="49.0989" lon="6.93272">
        <ele>258</ele>
        <time>2015-03-17T08:17:11Z</time>
      </trkpt>
      <trkpt lat="49.09885" lon="6.93267">
        <ele>259</ele>
        <time>2015-03-17T08:17:16Z</time>
      </trkpt>
      <trkpt lat="49.0988" lon="6.93261">
        <ele>258</ele>
        <time>2015-03-17T08:17:21Z</time>
      </trkpt>
      <trkpt lat="49.09874" lon="6.93256">
        <ele>260</ele>
        <time>2015-03-17T08:17:26Z</time>
      </trkpt>
      <trkpt lat="49.09869" lon="6.93252">
        <ele>260</ele>
        <time>2015-03-17T08:17:31Z</time>
      </trkpt>
      <trkpt lat="49.09864" lon="6.93249">
        <ele>260</ele>
        <time>2015-03-17T08:17:36Z</time>
      </trkpt>
      <trkpt lat="49.0986" lon="6.93243">
        <ele>261</ele>
        <time>2015-03-17T08:17:41Z</time>
      </trkpt>
      <trkpt lat="49.09855" lon="6.93241">
        <ele>260</ele>
        <time>2015-03-17T08:17:46Z</time>
      </trkpt>
      <trkpt lat="49.09842" lon="6.93234">
        <ele>264</ele>
        <time>2015-03-17T08:17:56Z</time>
      </trkpt>
      <trkpt lat="49.09835" lon="6.93226">
        <ele>265</ele>
        <time>2015-03-17T08:18:01Z</time>
      </trkpt>
      <trkpt lat="49.09828" lon="6.93219">
        <ele>267</ele>
        <time>2015-03-17T08:18:06Z</time>
      </trkpt>
      <trkpt lat="49.09821" lon="6.93214">
        <ele>267</ele>
        <time>2015-03-17T08:18:11Z</time>
      </trkpt>
      <trkpt lat="49.09815" lon="6.93214">
        <ele>265</ele>
        <time>2015-03-17T08:18:16Z</time>
      </trkpt>
      <trkpt lat="49.0981" lon="6.93212">
        <ele>263</ele>
        <time>2015-03-17T08:18:21Z</time>
      </trkpt>
      <trkpt lat="49.09802" lon="6.93206">
        <ele>260</ele>
        <time>2015-03-17T08:18:31Z</time>
      </trkpt>
      <trkpt lat="49.09796" lon="6.932">
        <ele>262</ele>
        <time>2015-03-17T08:18:36Z</time>
      </trkpt>
      <trkpt lat="49.0979" lon="6.93193">
        <ele>260</ele>
        <time>2015-03-17T08:18:41Z</time>
      </trkpt>
      <trkpt lat="49.09783" lon="6.93186">
        <ele>263</ele>
        <time>2015-03-17T08:18:46Z</time>
      </trkpt>
      <trkpt lat="49.09777" lon="6.9318">
        <ele>265</ele>
        <time>2015-03-17T08:18:51Z</time>
      </trkpt>
      <trkpt lat="49.0977" lon="6.93172">
        <ele>265</ele>
        <time>2015-03-17T08:18:56Z</time>
      </trkpt>
      <trkpt lat="49.09765" lon="6.93167">
        <ele>269</ele>
        <time>2015-03-17T08:19:01Z</time>
      </trkpt>
      <trkpt lat="49.09757" lon="6.93159">
        <ele>273</ele>
        <time>2015-03-17T08:19:06Z</time>
      </trkpt>
      <trkpt lat="49.09743" lon="6.93141">
        <ele>273</ele>
        <time>2015-03-17T08:19:16Z</time>
      </trkpt>
      <trkpt lat="49.09736" lon="6.93128">
        <ele>269</ele>
        <time>2015-03-17T08:19:26Z</time>
      </trkpt>
      <trkpt lat="49.09732" lon="6.93121">
        <ele>270</ele>
        <time>2015-03-17T08:19:31Z</time>
      </trkpt>
      <trkpt lat="49.09728" lon="6.93112">
        <ele>269</ele>
        <time>2015-03-17T08:19:36Z</time>
      </trkpt>
      <trkpt lat="49.09718" lon="6.93098">
        <ele>270</ele>
        <time>2015-03-17T08:19:46Z</time>
      </trkpt>
      <trkpt lat="49.09714" lon="6.93092">
        <ele>270</ele>
        <time>2015-03-17T08:19:51Z</time>
      </trkpt>
      <trkpt lat="49.09709" lon="6.93085">
        <ele>269</ele>
        <time>2015-03-17T08:19:56Z</time>
      </trkpt>
      <trkpt lat="49.09705" lon="6.93074">
        <ele>263</ele>
        <time>2015-03-17T08:20:06Z</time>
      </trkpt>
      <trkpt lat="49.09697" lon="6.93065">
        <ele>264</ele>
        <time>2015-03-17T08:20:16Z</time>
      </trkpt>
      <trkpt lat="49.09692" lon="6.93056">
        <ele>266</ele>
        <time>2015-03-17T08:20:21Z</time>
      </trkpt>
      <trkpt lat="49.09686" lon="6.93042">
        <ele>262</ele>
        <time>2015-03-17T08:20:31Z</time>
      </trkpt>
      <trkpt lat="49.09677" lon="6.9303">
        <ele>271</ele>
        <time>2015-03-17T08:20:36Z</time>
      </trkpt>
      <trkpt lat="49.09671" lon="6.93019">
        <ele>268</ele>
        <time>2015-03-17T08:20:41Z</time>
      </trkpt>
      <trkpt lat="49.09665" lon="6.93012">
        <ele>268</ele>
        <time>2015-03-17T08:20:46Z</time>
      </trkpt>
      <trkpt lat="49.09661" lon="6.93003">
        <ele>269</ele>
        <time>2015-03-17T08:20:51Z</time>
      </trkpt>
      <trkpt lat="49.09655" lon="6.92996">
        <ele>271</ele>
        <time>2015-03-17T08:20:56Z</time>
      </trkpt>
      <trkpt lat="49.09649" lon="6.92988">
        <ele>270</ele>
        <time>2015-03-17T08:21:01Z</time>
      </trkpt>
      <trkpt lat="49.09644" lon="6.9298">
        <ele>270</ele>
        <time>2015-03-17T08:21:06Z</time>
      </trkpt>
      <trkpt lat="49.09615" lon="6.92933">
        <ele>279</ele>
        <time>2015-03-17T08:21:35Z</time>
      </trkpt>
      <trkpt lat="49.09615" lon="6.92933">
        <ele>279</ele>
        <time>2015-03-17T08:21:35Z</time>
      </trkpt>
      <trkpt lat="49.09603" lon="6.9292">
        <ele>280</ele>
        <time>2015-03-17T08:21:42Z</time>
      </trkpt>
      <trkpt lat="49.09592" lon="6.92911">
        <ele>272</ele>
        <time>2015-03-17T08:21:52Z</time>
      </trkpt>
      <trkpt lat="49.09588" lon="6.92904">
        <ele>272</ele>
        <time>2015-03-17T08:21:57Z</time>
      </trkpt>
      <trkpt lat="49.09583" lon="6.92897">
        <ele>271</ele>
        <time>2015-03-17T08:22:02Z</time>
      </trkpt>
      <trkpt lat="49.09578" lon="6.9289">
        <ele>273</ele>
        <time>2015-03-17T08:22:07Z</time>
      </trkpt>
      <trkpt lat="49.09573" lon="6.92883">
        <ele>274</ele>
        <time>2015-03-17T08:22:12Z</time>
      </trkpt>
      <trkpt lat="49.09569" lon="6.92875">
        <ele>272</ele>
        <time>2015-03-17T08:22:17Z</time>
      </trkpt>
      <trkpt lat="49.09565" lon="6.92866">
        <ele>273</ele>
        <time>2015-03-17T08:22:22Z</time>
      </trkpt>
      <trkpt lat="49.09561" lon="6.92857">
        <ele>273</ele>
        <time>2015-03-17T08:22:27Z</time>
      </trkpt>
      <trkpt lat="49.09555" lon="6.92844">
        <ele>272</ele>
        <time>2015-03-17T08:22:37Z</time>
      </trkpt>
      <trkpt lat="49.0955" lon="6.92835">
        <ele>272</ele>
        <time>2015-03-17T08:22:42Z</time>
      </trkpt>
      <trkpt lat="49.09542" lon="6.92819">
        <ele>273</ele>
        <time>2015-03-17T08:22:52Z</time>
      </trkpt>
      <trkpt lat="49.09537" lon="6.92809">
        <ele>275</ele>
        <time>2015-03-17T08:22:57Z</time>
      </trkpt>
      <trkpt lat="49.09526" lon="6.92792">
        <ele>276</ele>
        <time>2015-03-17T08:23:07Z</time>
      </trkpt>
      <trkpt lat="49.09522" lon="6.92784">
        <ele>278</ele>
        <time>2015-03-17T08:23:12Z</time>
      </trkpt>
      <trkpt lat="49.09518" lon="6.92779">
        <ele>277</ele>
        <time>2015-03-17T08:23:17Z</time>
      </trkpt>
      <trkpt lat="49.09514" lon="6.92773">
        <ele>276</ele>
        <time>2015-03-17T08:23:22Z</time>
      </trkpt>
      <trkpt lat="49.0951" lon="6.9277">
        <ele>273</ele>
        <time>2015-03-17T08:23:27Z</time>
      </trkpt>
      <trkpt lat="49.09505" lon="6.92766">
        <ele>273</ele>
        <time>2015-03-17T08:23:32Z</time>
      </trkpt>
      <trkpt lat="49.09498" lon="6.9276">
        <ele>274</ele>
        <time>2015-03-17T08:23:37Z</time>
      </trkpt>
      <trkpt lat="49.09489" lon="6.92751">
        <ele>276</ele>
        <time>2015-03-17T08:23:42Z</time>
      </trkpt>
      <trkpt lat="49.09483" lon="6.92745">
        <ele>278</ele>
        <time>2015-03-17T08:23:47Z</time>
      </trkpt>
      <trkpt lat="49.09476" lon="6.92736">
        <ele>280</ele>
        <time>2015-03-17T08:23:52Z</time>
      </trkpt>
      <trkpt lat="49.09469" lon="6.92727">
        <ele>281</ele>
        <time>2015-03-17T08:23:57Z</time>
      </trkpt>
      <trkpt lat="49.09462" lon="6.92719">
        <ele>283</ele>
        <time>2015-03-17T08:24:02Z</time>
      </trkpt>
      <trkpt lat="49.09457" lon="6.92711">
        <ele>282</ele>
        <time>2015-03-17T08:24:07Z</time>
      </trkpt>
      <trkpt lat="49.09451" lon="6.92704">
        <ele>283</ele>
        <time>2015-03-17T08:24:12Z</time>
      </trkpt>
      <trkpt lat="49.09446" lon="6.92698">
        <ele>284</ele>
        <time>2015-03-17T08:24:17Z</time>
      </trkpt>
      <trkpt lat="49.0944" lon="6.92692">
        <ele>286</ele>
        <time>2015-03-17T08:24:22Z</time>
      </trkpt>
      <trkpt lat="49.09434" lon="6.92684">
        <ele>288</ele>
        <time>2015-03-17T08:24:27Z</time>
      </trkpt>
      <trkpt lat="49.09424" lon="6.92671">
        <ele>286</ele>
        <time>2015-03-17T08:24:37Z</time>
      </trkpt>
      <trkpt lat="49.09418" lon="6.92665">
        <ele>287</ele>
        <time>2015-03-17T08:24:42Z</time>
      </trkpt>
      <trkpt lat="49.09407" lon="6.9265">
        <ele>291</ele>
        <time>2015-03-17T08:24:52Z</time>
      </trkpt>
      <trkpt lat="49.09401" lon="6.92642">
        <ele>292</ele>
        <time>2015-03-17T08:24:57Z</time>
      </trkpt>
      <trkpt lat="49.09396" lon="6.92634">
        <ele>293</ele>
        <time>2015-03-17T08:25:02Z</time>
      </trkpt>
      <trkpt lat="49.09391" lon="6.92624">
        <ele>294</ele>
        <time>2015-03-17T08:25:07Z</time>
      </trkpt>
      <trkpt lat="49.0938" lon="6.92611">
        <ele>292</ele>
        <time>2015-03-17T08:25:17Z</time>
      </trkpt>
      <trkpt lat="49.09374" lon="6.92604">
        <ele>291</ele>
        <time>2015-03-17T08:25:22Z</time>
      </trkpt>
      <trkpt lat="49.09369" lon="6.92597">
        <ele>290</ele>
        <time>2015-03-17T08:25:27Z</time>
      </trkpt>
      <trkpt lat="49.09364" lon="6.9259">
        <ele>288</ele>
        <time>2015-03-17T08:25:32Z</time>
      </trkpt>
      <trkpt lat="49.09361" lon="6.92584">
        <ele>285</ele>
        <time>2015-03-17T08:25:37Z</time>
      </trkpt>
      <trkpt lat="49.09357" lon="6.92577">
        <ele>284</ele>
        <time>2015-03-17T08:25:42Z</time>
      </trkpt>
      <trkpt lat="49.09353" lon="6.9257">
        <ele>283</ele>
        <time>2015-03-17T08:25:47Z</time>
      </trkpt>
      <trkpt lat="49.09349" lon="6.92563">
        <ele>282</ele>
        <time>2015-03-17T08:25:52Z</time>
      </trkpt>
      <trkpt lat="49.09345" lon="6.92555">
        <ele>281</ele>
        <time>2015-03-17T08:25:57Z</time>
      </trkpt>
      <trkpt lat="49.09339" lon="6.92549">
        <ele>279</ele>
        <time>2015-03-17T08:26:02Z</time>
      </trkpt>
      <trkpt lat="49.09333" lon="6.9254">
        <ele>279</ele>
        <time>2015-03-17T08:26:07Z</time>
      </trkpt>
      <trkpt lat="49.09329" lon="6.92533">
        <ele>277</ele>
        <time>2015-03-17T08:26:12Z</time>
      </trkpt>
      <trkpt lat="49.09323" lon="6.92525">
        <ele>276</ele>
        <time>2015-03-17T08:26:17Z</time>
      </trkpt>
      <trkpt lat="49.09319" lon="6.92517">
        <ele>274</ele>
        <time>2015-03-17T08:26:22Z</time>
      </trkpt>
      <trkpt lat="49.09309" lon="6.92504">
        <ele>271</ele>
        <time>2015-03-17T08:26:32Z</time>
      </trkpt>
      <trkpt lat="49.09304" lon="6.92497">
        <ele>271</ele>
        <time>2015-03-17T08:26:37Z</time>
      </trkpt>
      <trkpt lat="49.09298" lon="6.9249">
        <ele>270</ele>
        <time>2015-03-17T08:26:42Z</time>
      </trkpt>
      <trkpt lat="49.09292" lon="6.92482">
        <ele>270</ele>
        <time>2015-03-17T08:26:47Z</time>
      </trkpt>
      <trkpt lat="49.09287" lon="6.92474">
        <ele>271</ele>
        <time>2015-03-17T08:26:52Z</time>
      </trkpt>
      <trkpt lat="49.09281" lon="6.92466">
        <ele>270</ele>
        <time>2015-03-17T08:26:57Z</time>
      </trkpt>
      <trkpt lat="49.09277" lon="6.92458">
        <ele>270</ele>
        <time>2015-03-17T08:27:02Z</time>
      </trkpt>
      <trkpt lat="49.09272" lon="6.92449">
        <ele>271</ele>
        <time>2015-03-17T08:27:07Z</time>
      </trkpt>
      <trkpt lat="49.09268" lon="6.92441">
        <ele>270</ele>
        <time>2015-03-17T08:27:12Z</time>
      </trkpt>
      <trkpt lat="49.09264" lon="6.92432">
        <ele>270</ele>
        <time>2015-03-17T08:27:17Z</time>
      </trkpt>
      <trkpt lat="49.0926" lon="6.92423">
        <ele>269</ele>
        <time>2015-03-17T08:27:22Z</time>
      </trkpt>
      <trkpt lat="49.09256" lon="6.92414">
        <ele>269</ele>
        <time>2015-03-17T08:27:27Z</time>
      </trkpt>
      <trkpt lat="49.09253" lon="6.92406">
        <ele>268</ele>
        <time>2015-03-17T08:27:32Z</time>
      </trkpt>
      <trkpt lat="49.09248" lon="6.92398">
        <ele>267</ele>
        <time>2015-03-17T08:27:37Z</time>
      </trkpt>
      <trkpt lat="49.09245" lon="6.92388">
        <ele>267</ele>
        <time>2015-03-17T08:27:42Z</time>
      </trkpt>
      <trkpt lat="49.0924" lon="6.92379">
        <ele>266</ele>
        <time>2015-03-17T08:27:47Z</time>
      </trkpt>
      <trkpt lat="49.09237" lon="6.9237">
        <ele>264</ele>
        <time>2015-03-17T08:27:52Z</time>
      </trkpt>
      <trkpt lat="49.09233" lon="6.92361">
        <ele>263</ele>
        <time>2015-03-17T08:27:57Z</time>
      </trkpt>
      <trkpt lat="49.09226" lon="6.92343">
        <ele>263</ele>
        <time>2015-03-17T08:28:07Z</time>
      </trkpt>
      <trkpt lat="49.09222" lon="6.92334">
        <ele>263</ele>
        <time>2015-03-17T08:28:12Z</time>
      </trkpt>
      <trkpt lat="49.09219" lon="6.92326">
        <ele>262</ele>
        <time>2015-03-17T08:28:17Z</time>
      </trkpt>
      <trkpt lat="49.09215" lon="6.92317">
        <ele>262</ele>
        <time>2015-03-17T08:28:22Z</time>
      </trkpt>
      <trkpt lat="49.09207" lon="6.923">
        <ele>261</ele>
        <time>2015-03-17T08:28:32Z</time>
      </trkpt>
      <trkpt lat="49.09203" lon="6.92291">
        <ele>260</ele>
        <time>2015-03-17T08:28:37Z</time>
      </trkpt>
      <trkpt lat="49.092" lon="6.92282">
        <ele>260</ele>
        <time>2015-03-17T08:28:42Z</time>
      </trkpt>
      <trkpt lat="49.09196" lon="6.92272">
        <ele>259</ele>
        <time>2015-03-17T08:28:47Z</time>
      </trkpt>
      <trkpt lat="49.09193" lon="6.92262">
        <ele>260</ele>
        <time>2015-03-17T08:28:52Z</time>
      </trkpt>
      <trkpt lat="49.09189" lon="6.92252">
        <ele>260</ele>
        <time>2015-03-17T08:28:57Z</time>
      </trkpt>
      <trkpt lat="49.09185" lon="6.92243">
        <ele>259</ele>
        <time>2015-03-17T08:29:02Z</time>
      </trkpt>
      <trkpt lat="49.09181" lon="6.92233">
        <ele>258</ele>
        <time>2015-03-17T08:29:07Z</time>
      </trkpt>
      <trkpt lat="49.09177" lon="6.92224">
        <ele>257</ele>
        <time>2015-03-17T08:29:12Z</time>
      </trkpt>
      <trkpt lat="49.09173" lon="6.92215">
        <ele>257</ele>
        <time>2015-03-17T08:29:17Z</time>
      </trkpt>
      <trkpt lat="49.09165" lon="6.92199">
        <ele>257</ele>
        <time>2015-03-17T08:29:27Z</time>
      </trkpt>
      <trkpt lat="49.09161" lon="6.9219">
        <ele>257</ele>
        <time>2015-03-17T08:29:32Z</time>
      </trkpt>
      <trkpt lat="49.09157" lon="6.92181">
        <ele>256</ele>
        <time>2015-03-17T08:29:37Z</time>
      </trkpt>
      <trkpt lat="49.09153" lon="6.92174">
        <ele>255</ele>
        <time>2015-03-17T08:29:42Z</time>
      </trkpt>
      <trkpt lat="49.09149" lon="6.92164">
        <ele>256</ele>
        <time>2015-03-17T08:29:47Z</time>
      </trkpt>
      <trkpt lat="49.09146" lon="6.92153">
        <ele>257</ele>
        <time>2015-03-17T08:29:52Z</time>
      </trkpt>
      <trkpt lat="49.09143" lon="6.92143">
        <ele>257</ele>
        <time>2015-03-17T08:29:57Z</time>
      </trkpt>
      <trkpt lat="49.09138" lon="6.92136">
        <ele>257</ele>
        <time>2015-03-17T08:30:02Z</time>
      </trkpt>
      <trkpt lat="49.09133" lon="6.92138">
        <ele>255</ele>
        <time>2015-03-17T08:30:07Z</time>
      </trkpt>
      <trkpt lat="49.09132" lon="6.92146">
        <ele>256</ele>
        <time>2015-03-17T08:30:22Z</time>
      </trkpt>
      <trkpt lat="49.09127" lon="6.9215">
        <ele>254</ele>
        <time>2015-03-17T08:30:27Z</time>
      </trkpt>
      <trkpt lat="49.09116" lon="6.92159">
        <ele>251</ele>
        <time>2015-03-17T08:30:37Z</time>
      </trkpt>
      <trkpt lat="49.09102" lon="6.92174">
        <ele>252</ele>
        <time>2015-03-17T08:30:52Z</time>
      </trkpt>
      <trkpt lat="49.09102" lon="6.92183">
        <ele>253</ele>
        <time>2015-03-17T08:30:57Z</time>
      </trkpt>
      <trkpt lat="49.09097" lon="6.92187">
        <ele>248</ele>
        <time>2015-03-17T08:31:02Z</time>
      </trkpt>
      <trkpt lat="49.09089" lon="6.92194">
        <ele>251</ele>
        <time>2015-03-17T08:31:07Z</time>
      </trkpt>
      <trkpt lat="49.09082" lon="6.92199">
        <ele>250</ele>
        <time>2015-03-17T08:31:12Z</time>
      </trkpt>
      <trkpt lat="49.09076" lon="6.92205">
        <ele>251</ele>
        <time>2015-03-17T08:31:17Z</time>
      </trkpt>
      <trkpt lat="49.09071" lon="6.9221">
        <ele>252</ele>
        <time>2015-03-17T08:31:22Z</time>
      </trkpt>
      <trkpt lat="49.09064" lon="6.92218">
        <ele>253</ele>
        <time>2015-03-17T08:31:27Z</time>
      </trkpt>
      <trkpt lat="49.09057" lon="6.92227">
        <ele>254</ele>
        <time>2015-03-17T08:31:37Z</time>
      </trkpt>
      <trkpt lat="49.09049" lon="6.92235">
        <ele>253</ele>
        <time>2015-03-17T08:31:42Z</time>
      </trkpt>
      <trkpt lat="49.09041" lon="6.92239">
        <ele>251</ele>
        <time>2015-03-17T08:31:47Z</time>
      </trkpt>
      <trkpt lat="49.09034" lon="6.92243">
        <ele>250</ele>
        <time>2015-03-17T08:31:52Z</time>
      </trkpt>
      <trkpt lat="49.09027" lon="6.92245">
        <ele>249</ele>
        <time>2015-03-17T08:31:57Z</time>
      </trkpt>
      <trkpt lat="49.09021" lon="6.92248">
        <ele>260</ele>
        <time>2015-03-17T08:32:02Z</time>
      </trkpt>
      <trkpt lat="49.09015" lon="6.92256">
        <ele>255</ele>
        <time>2015-03-17T08:32:07Z</time>
      </trkpt>
      <trkpt lat="49.09007" lon="6.92257">
        <ele>253</ele>
        <time>2015-03-17T08:32:12Z</time>
      </trkpt>
      <trkpt lat="49.09" lon="6.92256">
        <ele>251</ele>
        <time>2015-03-17T08:32:17Z</time>
      </trkpt>
      <trkpt lat="49.08994" lon="6.92261">
        <ele>249</ele>
        <time>2015-03-17T08:32:22Z</time>
      </trkpt>
      <trkpt lat="49.08989" lon="6.92266">
        <ele>249</ele>
        <time>2015-03-17T08:32:27Z</time>
      </trkpt>
      <trkpt lat="49.08982" lon="6.92271">
        <ele>246</ele>
        <time>2015-03-17T08:32:32Z</time>
      </trkpt>
      <trkpt lat="49.08976" lon="6.92276">
        <ele>244</ele>
        <time>2015-03-17T08:32:37Z</time>
      </trkpt>
      <trkpt lat="49.0897" lon="6.92282">
        <ele>243</ele>
        <time>2015-03-17T08:32:42Z</time>
      </trkpt>
      <trkpt lat="49.08963" lon="6.92287">
        <ele>246</ele>
        <time>2015-03-17T08:32:47Z</time>
      </trkpt>
      <trkpt lat="49.08955" lon="6.92293">
        <ele>245</ele>
        <time>2015-03-17T08:32:52Z</time>
      </trkpt>
      <trkpt lat="49.08949" lon="6.92299">
        <ele>246</ele>
        <time>2015-03-17T08:32:57Z</time>
      </trkpt>
      <trkpt lat="49.08942" lon="6.92305">
        <ele>246</ele>
        <time>2015-03-17T08:33:02Z</time>
      </trkpt>
      <trkpt lat="49.08935" lon="6.9231">
        <ele>246</ele>
        <time>2015-03-17T08:33:07Z</time>
      </trkpt>
      <trkpt lat="49.08931" lon="6.92315">
        <ele>246</ele>
        <time>2015-03-17T08:33:12Z</time>
      </trkpt>
      <trkpt lat="49.08923" lon="6.92319">
        <ele>248</ele>
        <time>2015-03-17T08:33:17Z</time>
      </trkpt>
      <trkpt lat="49.08909" lon="6.92332">
        <ele>248</ele>
        <time>2015-03-17T08:33:27Z</time>
      </trkpt>
      <trkpt lat="49.08902" lon="6.92338">
        <ele>248</ele>
        <time>2015-03-17T08:33:32Z</time>
      </trkpt>
      <trkpt lat="49.08897" lon="6.92346">
        <ele>246</ele>
        <time>2015-03-17T08:33:37Z</time>
      </trkpt>
      <trkpt lat="49.08888" lon="6.92356">
        <ele>247</ele>
        <time>2015-03-17T08:33:47Z</time>
      </trkpt>
      <trkpt lat="49.08879" lon="6.92361">
        <ele>248</ele>
        <time>2015-03-17T08:33:52Z</time>
      </trkpt>
      <trkpt lat="49.08868" lon="6.92373">
        <ele>247</ele>
        <time>2015-03-17T08:34:02Z</time>
      </trkpt>
      <trkpt lat="49.08862" lon="6.92381">
        <ele>246</ele>
        <time>2015-03-17T08:34:12Z</time>
      </trkpt>
      <trkpt lat="49.08854" lon="6.92383">
        <ele>252</ele>
        <time>2015-03-17T08:34:17Z</time>
      </trkpt>
      <trkpt lat="49.08842" lon="6.92389">
        <ele>251</ele>
        <time>2015-03-17T08:34:22Z</time>
      </trkpt>
      <trkpt lat="49.08835" lon="6.92397">
        <ele>248</ele>
        <time>2015-03-17T08:34:27Z</time>
      </trkpt>
      <trkpt lat="49.08817" lon="6.92405">
        <ele>253</ele>
        <time>2015-03-17T08:34:37Z</time>
      </trkpt>
      <trkpt lat="49.08807" lon="6.92409">
        <ele>257</ele>
        <time>2015-03-17T08:34:42Z</time>
      </trkpt>
      <trkpt lat="49.08799" lon="6.92409">
        <ele>254</ele>
        <time>2015-03-17T08:34:47Z</time>
      </trkpt>
      <trkpt lat="49.08793" lon="6.92404">
        <ele>254</ele>
        <time>2015-03-17T08:34:52Z</time>
      </trkpt>
      <trkpt lat="49.08785" lon="6.92398">
        <ele>255</ele>
        <time>2015-03-17T08:34:57Z</time>
      </trkpt>
      <trkpt lat="49.08778" lon="6.92391">
        <ele>257</ele>
        <time>2015-03-17T08:35:02Z</time>
      </trkpt>
      <trkpt lat="49.08773" lon="6.92384">
        <ele>257</ele>
        <time>2015-03-17T08:35:07Z</time>
      </trkpt>
      <trkpt lat="49.08767" lon="6.92381">
        <ele>255</ele>
        <time>2015-03-17T08:35:12Z</time>
      </trkpt>
      <trkpt lat="49.08759" lon="6.92377">
        <ele>253</ele>
        <time>2015-03-17T08:35:17Z</time>
      </trkpt>
      <trkpt lat="49.08754" lon="6.92375">
        <ele>253</ele>
        <time>2015-03-17T08:35:22Z</time>
      </trkpt>
      <trkpt lat="49.08739" lon="6.92366">
        <ele>254</ele>
        <time>2015-03-17T08:35:32Z</time>
      </trkpt>
      <trkpt lat="49.08733" lon="6.92359">
        <ele>253</ele>
        <time>2015-03-17T08:35:37Z</time>
      </trkpt>
      <trkpt lat="49.08725" lon="6.92355">
        <ele>251</ele>
        <time>2015-03-17T08:35:42Z</time>
      </trkpt>
      <trkpt lat="49.08719" lon="6.9236">
        <ele>250</ele>
        <time>2015-03-17T08:35:47Z</time>
      </trkpt>
      <trkpt lat="49.08714" lon="6.92366">
        <ele>252</ele>
        <time>2015-03-17T08:35:52Z</time>
      </trkpt>
      <trkpt lat="49.08708" lon="6.92372">
        <ele>251</ele>
        <time>2015-03-17T08:35:57Z</time>
      </trkpt>
      <trkpt lat="49.08703" lon="6.92377">
        <ele>248</ele>
        <time>2015-03-17T08:36:02Z</time>
      </trkpt>
      <trkpt lat="49.08697" lon="6.92385">
        <ele>246</ele>
        <time>2015-03-17T08:36:07Z</time>
      </trkpt>
      <trkpt lat="49.08689" lon="6.92391">
        <ele>247</ele>
        <time>2015-03-17T08:36:12Z</time>
      </trkpt>
      <trkpt lat="49.08681" lon="6.92395">
        <ele>248</ele>
        <time>2015-03-17T08:36:17Z</time>
      </trkpt>
      <trkpt lat="49.08673" lon="6.92399">
        <ele>249</ele>
        <time>2015-03-17T08:36:22Z</time>
      </trkpt>
      <trkpt lat="49.08667" lon="6.92403">
        <ele>249</ele>
        <time>2015-03-17T08:36:27Z</time>
      </trkpt>
      <trkpt lat="49.08656" lon="6.9241">
        <ele>251</ele>
        <time>2015-03-17T08:36:37Z</time>
      </trkpt>
      <trkpt lat="49.08651" lon="6.92415">
        <ele>251</ele>
        <time>2015-03-17T08:36:42Z</time>
      </trkpt>
      <trkpt lat="49.08635" lon="6.92424">
        <ele>252</ele>
        <time>2015-03-17T08:36:52Z</time>
      </trkpt>
      <trkpt lat="49.08629" lon="6.92425">
        <ele>254</ele>
        <time>2015-03-17T08:36:57Z</time>
      </trkpt>
      <trkpt lat="49.08622" lon="6.92428">
        <ele>253</ele>
        <time>2015-03-17T08:37:02Z</time>
      </trkpt>
      <trkpt lat="49.08613" lon="6.92436">
        <ele>253</ele>
        <time>2015-03-17T08:37:07Z</time>
      </trkpt>
      <trkpt lat="49.08598" lon="6.92448">
        <ele>253</ele>
        <time>2015-03-17T08:37:17Z</time>
      </trkpt>
      <trkpt lat="49.08591" lon="6.92455">
        <ele>251</ele>
        <time>2015-03-17T08:37:22Z</time>
      </trkpt>
      <trkpt lat="49.08585" lon="6.92463">
        <ele>251</ele>
        <time>2015-03-17T08:37:27Z</time>
      </trkpt>
      <trkpt lat="49.08569" lon="6.92472">
        <ele>252</ele>
        <time>2015-03-17T08:37:37Z</time>
      </trkpt>
      <trkpt lat="49.08562" lon="6.92477">
        <ele>253</ele>
        <time>2015-03-17T08:37:42Z</time>
      </trkpt>
      <trkpt lat="49.08556" lon="6.92484">
        <ele>252</ele>
        <time>2015-03-17T08:37:47Z</time>
      </trkpt>
      <trkpt lat="49.08548" lon="6.92489">
        <ele>254</ele>
        <time>2015-03-17T08:37:52Z</time>
      </trkpt>
      <trkpt lat="49.08542" lon="6.92492">
        <ele>255</ele>
        <time>2015-03-17T08:37:57Z</time>
      </trkpt>
      <trkpt lat="49.08536" lon="6.92497">
        <ele>255</ele>
        <time>2015-03-17T08:38:02Z</time>
      </trkpt>
      <trkpt lat="49.08529" lon="6.92501">
        <ele>256</ele>
        <time>2015-03-17T08:38:07Z</time>
      </trkpt>
      <trkpt lat="49.08522" lon="6.92505">
        <ele>257</ele>
        <time>2015-03-17T08:38:12Z</time>
      </trkpt>
      <trkpt lat="49.08508" lon="6.92515">
        <ele>259</ele>
        <time>2015-03-17T08:38:22Z</time>
      </trkpt>
      <trkpt lat="49.08501" lon="6.9252">
        <ele>259</ele>
        <time>2015-03-17T08:38:27Z</time>
      </trkpt>
      <trkpt lat="49.08495" lon="6.92527">
        <ele>259</ele>
        <time>2015-03-17T08:38:32Z</time>
      </trkpt>
      <trkpt lat="49.0849" lon="6.92531">
        <ele>259</ele>
        <time>2015-03-17T08:38:37Z</time>
      </trkpt>
      <trkpt lat="49.08485" lon="6.92538">
        <ele>258</ele>
        <time>2015-03-17T08:38:42Z</time>
      </trkpt>
      <trkpt lat="49.0847" lon="6.92551">
        <ele>263</ele>
        <time>2015-03-17T08:38:52Z</time>
      </trkpt>
      <trkpt lat="49.08464" lon="6.92558">
        <ele>265</ele>
        <time>2015-03-17T08:38:57Z</time>
      </trkpt>
      <trkpt lat="49.08458" lon="6.92564">
        <ele>265</ele>
        <time>2015-03-17T08:39:02Z</time>
      </trkpt>
      <trkpt lat="49.08453" lon="6.92571">
        <ele>268</ele>
        <time>2015-03-17T08:39:07Z</time>
      </trkpt>
      <trkpt lat="49.08447" lon="6.92578">
        <ele>269</ele>
        <time>2015-03-17T08:39:12Z</time>
      </trkpt>
      <trkpt lat="49.08437" lon="6.92587">
        <ele>265</ele>
        <time>2015-03-17T08:39:22Z</time>
      </trkpt>
      <trkpt lat="49.08431" lon="6.92593">
        <ele>263</ele>
        <time>2015-03-17T08:39:27Z</time>
      </trkpt>
      <trkpt lat="49.08424" lon="6.926">
        <ele>263</ele>
        <time>2015-03-17T08:39:32Z</time>
      </trkpt>
      <trkpt lat="49.08418" lon="6.92606">
        <ele>263</ele>
        <time>2015-03-17T08:39:37Z</time>
      </trkpt>
      <trkpt lat="49.08413" lon="6.92613">
        <ele>262</ele>
        <time>2015-03-17T08:39:42Z</time>
      </trkpt>
      <trkpt lat="49.08408" lon="6.92621">
        <ele>261</ele>
        <time>2015-03-17T08:39:47Z</time>
      </trkpt>
      <trkpt lat="49.08398" lon="6.92638">
        <ele>259</ele>
        <time>2015-03-17T08:39:57Z</time>
      </trkpt>
      <trkpt lat="49.08387" lon="6.92658">
        <ele>257</ele>
        <time>2015-03-17T08:40:07Z</time>
      </trkpt>
      <trkpt lat="49.08381" lon="6.92667">
        <ele>258</ele>
        <time>2015-03-17T08:40:12Z</time>
      </trkpt>
      <trkpt lat="49.08375" lon="6.92677">
        <ele>259</ele>
        <time>2015-03-17T08:40:17Z</time>
      </trkpt>
      <trkpt lat="49.08369" lon="6.92685">
        <ele>259</ele>
        <time>2015-03-17T08:40:22Z</time>
      </trkpt>
      <trkpt lat="49.08364" lon="6.92694">
        <ele>258</ele>
        <time>2015-03-17T08:40:27Z</time>
      </trkpt>
      <trkpt lat="49.08358" lon="6.92703">
        <ele>258</ele>
        <time>2015-03-17T08:40:32Z</time>
      </trkpt>
      <trkpt lat="49.08352" lon="6.92712">
        <ele>257</ele>
        <time>2015-03-17T08:40:37Z</time>
      </trkpt>
      <trkpt lat="49.08347" lon="6.92719">
        <ele>257</ele>
        <time>2015-03-17T08:40:42Z</time>
      </trkpt>
      <trkpt lat="49.08341" lon="6.92727">
        <ele>256</ele>
        <time>2015-03-17T08:40:47Z</time>
      </trkpt>
      <trkpt lat="49.08336" lon="6.92736">
        <ele>256</ele>
        <time>2015-03-17T08:40:52Z</time>
      </trkpt>
      <trkpt lat="49.08331" lon="6.92746">
        <ele>257</ele>
        <time>2015-03-17T08:40:57Z</time>
      </trkpt>
      <trkpt lat="49.08326" lon="6.92755">
        <ele>258</ele>
        <time>2015-03-17T08:41:02Z</time>
      </trkpt>
      <trkpt lat="49.08321" lon="6.92766">
        <ele>255</ele>
        <time>2015-03-17T08:41:07Z</time>
      </trkpt>
      <trkpt lat="49.08311" lon="6.92784">
        <ele>256</ele>
        <time>2015-03-17T08:41:17Z</time>
      </trkpt>
      <trkpt lat="49.08306" lon="6.92793">
        <ele>256</ele>
        <time>2015-03-17T08:41:22Z</time>
      </trkpt>
      <trkpt lat="49.08301" lon="6.92804">
        <ele>256</ele>
        <time>2015-03-17T08:41:27Z</time>
      </trkpt>
      <trkpt lat="49.08298" lon="6.9281">
        <ele>256</ele>
        <time>2015-03-17T08:41:42Z</time>
      </trkpt>
      <trkpt lat="49.08298" lon="6.9281">
        <ele>255</ele>
        <time>2015-03-17T08:42:02Z</time>
      </trkpt>
      <trkpt lat="49.08274" lon="6.92841">
        <ele>254</ele>
        <time>2015-03-17T08:42:57Z</time>
      </trkpt>
      <trkpt lat="49.08266" lon="6.92849">
        <ele>254</ele>
        <time>2015-03-17T08:43:02Z</time>
      </trkpt>
      <trkpt lat="49.08261" lon="6.92855">
        <ele>254</ele>
        <time>2015-03-17T08:43:07Z</time>
      </trkpt>
      <trkpt lat="49.08255" lon="6.9286">
        <ele>253</ele>
        <time>2015-03-17T08:43:12Z</time>
      </trkpt>
      <trkpt lat="49.08249" lon="6.92868">
        <ele>254</ele>
        <time>2015-03-17T08:43:17Z</time>
      </trkpt>
      <trkpt lat="49.08243" lon="6.92871">
        <ele>254</ele>
        <time>2015-03-17T08:43:22Z</time>
      </trkpt>
      <trkpt lat="49.08234" lon="6.92878">
        <ele>254</ele>
        <time>2015-03-17T08:43:32Z</time>
      </trkpt>
      <trkpt lat="49.08221" lon="6.92889">
        <ele>255</ele>
        <time>2015-03-17T08:43:42Z</time>
      </trkpt>
      <trkpt lat="49.08214" lon="6.92892">
        <ele>257</ele>
        <time>2015-03-17T08:43:47Z</time>
      </trkpt>
      <trkpt lat="49.08206" lon="6.92897">
        <ele>257</ele>
        <time>2015-03-17T08:43:52Z</time>
      </trkpt>
      <trkpt lat="49.082" lon="6.92902">
        <ele>257</ele>
        <time>2015-03-17T08:43:57Z</time>
      </trkpt>
      <trkpt lat="49.08193" lon="6.92907">
        <ele>257</ele>
        <time>2015-03-17T08:44:02Z</time>
      </trkpt>
      <trkpt lat="49.08187" lon="6.92912">
        <ele>256</ele>
        <time>2015-03-17T08:44:07Z</time>
      </trkpt>
      <trkpt lat="49.08182" lon="6.92917">
        <ele>256</ele>
        <time>2015-03-17T08:44:12Z</time>
      </trkpt>
      <trkpt lat="49.08176" lon="6.92923">
        <ele>255</ele>
        <time>2015-03-17T08:44:17Z</time>
      </trkpt>
      <trkpt lat="49.08172" lon="6.92929">
        <ele>255</ele>
        <time>2015-03-17T08:44:22Z</time>
      </trkpt>
      <trkpt lat="49.08166" lon="6.92932">
        <ele>257</ele>
        <time>2015-03-17T08:44:27Z</time>
      </trkpt>
      <trkpt lat="49.0816" lon="6.92938">
        <ele>257</ele>
        <time>2015-03-17T08:44:32Z</time>
      </trkpt>
      <trkpt lat="49.08154" lon="6.92943">
        <ele>257</ele>
        <time>2015-03-17T08:44:37Z</time>
      </trkpt>
      <trkpt lat="49.08148" lon="6.92947">
        <ele>260</ele>
        <time>2015-03-17T08:44:42Z</time>
      </trkpt>
      <trkpt lat="49.08141" lon="6.92951">
        <ele>260</ele>
        <time>2015-03-17T08:44:52Z</time>
      </trkpt>
      <trkpt lat="49.08136" lon="6.92953">
        <ele>261</ele>
        <time>2015-03-17T08:44:57Z</time>
      </trkpt>
      <trkpt lat="49.08131" lon="6.92955">
        <ele>263</ele>
        <time>2015-03-17T08:45:02Z</time>
      </trkpt>
      <trkpt lat="49.08119" lon="6.92963">
        <ele>263</ele>
        <time>2015-03-17T08:45:12Z</time>
      </trkpt>
      <trkpt lat="49.08113" lon="6.92968">
        <ele>263</ele>
        <time>2015-03-17T08:45:17Z</time>
      </trkpt>
      <trkpt lat="49.08107" lon="6.92973">
        <ele>264</ele>
        <time>2015-03-17T08:45:22Z</time>
      </trkpt>
      <trkpt lat="49.08101" lon="6.92977">
        <ele>263</ele>
        <time>2015-03-17T08:45:27Z</time>
      </trkpt>
      <trkpt lat="49.08096" lon="6.92983">
        <ele>264</ele>
        <time>2015-03-17T08:45:32Z</time>
      </trkpt>
      <trkpt lat="49.08092" lon="6.92987">
        <ele>263</ele>
        <time>2015-03-17T08:45:37Z</time>
      </trkpt>
      <trkpt lat="49.08087" lon="6.92992">
        <ele>263</ele>
        <time>2015-03-17T08:45:42Z</time>
      </trkpt>
      <trkpt lat="49.08082" lon="6.92994">
        <ele>265</ele>
        <time>2015-03-17T08:45:47Z</time>
      </trkpt>
      <trkpt lat="49.08073" lon="6.92999">
        <ele>266</ele>
        <time>2015-03-17T08:45:57Z</time>
      </trkpt>
      <trkpt lat="49.08069" lon="6.93005">
        <ele>262</ele>
        <time>2015-03-17T08:46:02Z</time>
      </trkpt>
      <trkpt lat="49.08065" lon="6.93011">
        <ele>262</ele>
        <time>2015-03-17T08:46:07Z</time>
      </trkpt>
      <trkpt lat="49.08059" lon="6.93016">
        <ele>262</ele>
        <time>2015-03-17T08:46:12Z</time>
      </trkpt>
      <trkpt lat="49.08053" lon="6.9302">
        <ele>262</ele>
        <time>2015-03-17T08:46:17Z</time>
      </trkpt>
      <trkpt lat="49.08046" lon="6.93021">
        <ele>267</ele>
        <time>2015-03-17T08:46:22Z</time>
      </trkpt>
      <trkpt lat="49.08042" lon="6.93024">
        <ele>265</ele>
        <time>2015-03-17T08:46:32Z</time>
      </trkpt>
      <trkpt lat="49.08031" lon="6.93033">
        <ele>265</ele>
        <time>2015-03-17T08:46:42Z</time>
      </trkpt>
      <trkpt lat="49.08018" lon="6.93049">
        <ele>265</ele>
        <time>2015-03-17T08:46:52Z</time>
      </trkpt>
      <trkpt lat="49.08012" lon="6.93057">
        <ele>268</ele>
        <time>2015-03-17T08:46:57Z</time>
      </trkpt>
      <trkpt lat="49.08005" lon="6.93062">
        <ele>267</ele>
        <time>2015-03-17T08:47:02Z</time>
      </trkpt>
      <trkpt lat="49.07995" lon="6.93073">
        <ele>266</ele>
        <time>2015-03-17T08:47:12Z</time>
      </trkpt>
      <trkpt lat="49.07988" lon="6.93079">
        <ele>267</ele>
        <time>2015-03-17T08:47:17Z</time>
      </trkpt>
      <trkpt lat="49.07985" lon="6.93087">
        <ele>266</ele>
        <time>2015-03-17T08:47:22Z</time>
      </trkpt>
      <trkpt lat="49.0798" lon="6.93094">
        <ele>267</ele>
        <time>2015-03-17T08:47:27Z</time>
      </trkpt>
      <trkpt lat="49.07976" lon="6.93103">
        <ele>271</ele>
        <time>2015-03-17T08:47:32Z</time>
      </trkpt>
      <trkpt lat="49.0797" lon="6.93111">
        <ele>266</ele>
        <time>2015-03-17T08:47:37Z</time>
      </trkpt>
      <trkpt lat="49.07966" lon="6.9312">
        <ele>263</ele>
        <time>2015-03-17T08:47:42Z</time>
      </trkpt>
      <trkpt lat="49.07962" lon="6.93126">
        <ele>263</ele>
        <time>2015-03-17T08:47:47Z</time>
      </trkpt>
      <trkpt lat="49.07958" lon="6.93134">
        <ele>263</ele>
        <time>2015-03-17T08:47:52Z</time>
      </trkpt>
      <trkpt lat="49.07954" lon="6.93143">
        <ele>261</ele>
        <time>2015-03-17T08:47:57Z</time>
      </trkpt>
      <trkpt lat="49.0795" lon="6.93153">
        <ele>261</ele>
        <time>2015-03-17T08:48:02Z</time>
      </trkpt>
      <trkpt lat="49.07945" lon="6.93163">
        <ele>260</ele>
        <time>2015-03-17T08:48:07Z</time>
      </trkpt>
      <trkpt lat="49.07941" lon="6.93172">
        <ele>258</ele>
        <time>2015-03-17T08:48:12Z</time>
      </trkpt>
      <trkpt lat="49.07936" lon="6.9318">
        <ele>259</ele>
        <time>2015-03-17T08:48:17Z</time>
      </trkpt>
      <trkpt lat="49.07931" lon="6.93188">
        <ele>261</ele>
        <time>2015-03-17T08:48:22Z</time>
      </trkpt>
      <trkpt lat="49.07925" lon="6.93198">
        <ele>259</ele>
        <time>2015-03-17T08:48:27Z</time>
      </trkpt>
      <trkpt lat="49.07919" lon="6.93207">
        <ele>257</ele>
        <time>2015-03-17T08:48:32Z</time>
      </trkpt>
      <trkpt lat="49.07913" lon="6.93216">
        <ele>255</ele>
        <time>2015-03-17T08:48:37Z</time>
      </trkpt>
      <trkpt lat="49.07907" lon="6.93225">
        <ele>255</ele>
        <time>2015-03-17T08:48:42Z</time>
      </trkpt>
      <trkpt lat="49.07901" lon="6.93233">
        <ele>255</ele>
        <time>2015-03-17T08:48:47Z</time>
      </trkpt>
      <trkpt lat="49.07896" lon="6.93241">
        <ele>256</ele>
        <time>2015-03-17T08:48:52Z</time>
      </trkpt>
      <trkpt lat="49.07889" lon="6.93247">
        <ele>257</ele>
        <time>2015-03-17T08:48:57Z</time>
      </trkpt>
      <trkpt lat="49.07883" lon="6.93254">
        <ele>257</ele>
        <time>2015-03-17T08:49:02Z</time>
      </trkpt>
      <trkpt lat="49.07876" lon="6.93261">
        <ele>256</ele>
        <time>2015-03-17T08:49:07Z</time>
      </trkpt>
      <trkpt lat="49.0787" lon="6.93267">
        <ele>256</ele>
        <time>2015-03-17T08:49:12Z</time>
      </trkpt>
      <trkpt lat="49.07864" lon="6.93277">
        <ele>255</ele>
        <time>2015-03-17T08:49:17Z</time>
      </trkpt>
      <trkpt lat="49.07858" lon="6.93285">
        <ele>254</ele>
        <time>2015-03-17T08:49:22Z</time>
      </trkpt>
      <trkpt lat="49.07851" lon="6.93291">
        <ele>256</ele>
        <time>2015-03-17T08:49:27Z</time>
      </trkpt>
      <trkpt lat="49.07845" lon="6.93298">
        <ele>255</ele>
        <time>2015-03-17T08:49:32Z</time>
      </trkpt>
      <trkpt lat="49.07838" lon="6.93302">
        <ele>255</ele>
        <time>2015-03-17T08:49:37Z</time>
      </trkpt>
      <trkpt lat="49.07832" lon="6.93306">
        <ele>257</ele>
        <time>2015-03-17T08:49:42Z</time>
      </trkpt>
      <trkpt lat="49.07825" lon="6.93312">
        <ele>256</ele>
        <time>2015-03-17T08:49:47Z</time>
      </trkpt>
      <trkpt lat="49.07813" lon="6.93324">
        <ele>255</ele>
        <time>2015-03-17T08:49:57Z</time>
      </trkpt>
      <trkpt lat="49.07807" lon="6.93329">
        <ele>254</ele>
        <time>2015-03-17T08:50:02Z</time>
      </trkpt>
      <trkpt lat="49.07801" lon="6.93334">
        <ele>254</ele>
        <time>2015-03-17T08:50:07Z</time>
      </trkpt>
      <trkpt lat="49.07787" lon="6.93343">
        <ele>255</ele>
        <time>2015-03-17T08:50:17Z</time>
      </trkpt>
      <trkpt lat="49.07774" lon="6.93348">
        <ele>259</ele>
        <time>2015-03-17T08:50:22Z</time>
      </trkpt>
      <trkpt lat="49.07772" lon="6.9336">
        <ele>258</ele>
        <time>2015-03-17T08:50:27Z</time>
      </trkpt>
      <trkpt lat="49.07772" lon="6.93373">
        <ele>259</ele>
        <time>2015-03-17T08:50:32Z</time>
      </trkpt>
      <trkpt lat="49.07774" lon="6.93385">
        <ele>258</ele>
        <time>2015-03-17T08:50:37Z</time>
      </trkpt>
      <trkpt lat="49.07775" lon="6.93396">
        <ele>258</ele>
        <time>2015-03-17T08:50:42Z</time>
      </trkpt>
      <trkpt lat="49.07776" lon="6.93408">
        <ele>258</ele>
        <time>2015-03-17T08:50:47Z</time>
      </trkpt>
      <trkpt lat="49.07776" lon="6.9342">
        <ele>261</ele>
        <time>2015-03-17T08:50:52Z</time>
      </trkpt>
      <trkpt lat="49.07776" lon="6.93432">
        <ele>262</ele>
        <time>2015-03-17T08:50:57Z</time>
      </trkpt>
      <trkpt lat="49.07777" lon="6.93456">
        <ele>264</ele>
        <time>2015-03-17T08:51:07Z</time>
      </trkpt>
      <trkpt lat="49.07778" lon="6.93467">
        <ele>264</ele>
        <time>2015-03-17T08:51:12Z</time>
      </trkpt>
      <trkpt lat="49.07777" lon="6.9349">
        <ele>263</ele>
        <time>2015-03-17T08:51:22Z</time>
      </trkpt>
      <trkpt lat="49.07777" lon="6.93501">
        <ele>260</ele>
        <time>2015-03-17T08:51:27Z</time>
      </trkpt>
      <trkpt lat="49.07777" lon="6.93511">
        <ele>259</ele>
        <time>2015-03-17T08:51:32Z</time>
      </trkpt>
      <trkpt lat="49.07778" lon="6.93521">
        <ele>258</ele>
        <time>2015-03-17T08:51:37Z</time>
      </trkpt>
      <trkpt lat="49.07778" lon="6.93532">
        <ele>257</ele>
        <time>2015-03-17T08:51:42Z</time>
      </trkpt>
      <trkpt lat="49.07778" lon="6.93543">
        <ele>257</ele>
        <time>2015-03-17T08:51:47Z</time>
      </trkpt>
      <trkpt lat="49.07779" lon="6.93555">
        <ele>257</ele>
        <time>2015-03-17T08:51:52Z</time>
      </trkpt>
      <trkpt lat="49.07779" lon="6.93566">
        <ele>256</ele>
        <time>2015-03-17T08:51:57Z</time>
      </trkpt>
      <trkpt lat="49.07778" lon="6.93574">
        <ele>255</ele>
        <time>2015-03-17T08:52:02Z</time>
      </trkpt>
      <trkpt lat="49.07778" lon="6.93586">
        <ele>258</ele>
        <time>2015-03-17T08:52:07Z</time>
      </trkpt>
      <trkpt lat="49.07777" lon="6.93598">
        <ele>260</ele>
        <time>2015-03-17T08:52:12Z</time>
      </trkpt>
      <trkpt lat="49.07774" lon="6.93621">
        <ele>262</ele>
        <time>2015-03-17T08:52:22Z</time>
      </trkpt>
      <trkpt lat="49.07773" lon="6.93625">
        <ele>264</ele>
        <time>2015-03-17T08:52:37Z</time>
      </trkpt>
      <trkpt lat="49.07773" lon="6.93625">
        <ele>264</ele>
        <time>2015-03-17T08:52:52Z</time>
      </trkpt>
      <trkpt lat="49.07772" lon="6.9363">
        <ele>264</ele>
        <time>2015-03-17T08:52:57Z</time>
      </trkpt>
      <trkpt lat="49.07766" lon="6.93647">
        <ele>266</ele>
        <time>2015-03-17T08:53:07Z</time>
      </trkpt>
      <trkpt lat="49.07754" lon="6.9366">
        <ele>267</ele>
        <time>2015-03-17T08:53:17Z</time>
      </trkpt>
      <trkpt lat="49.07748" lon="6.93666">
        <ele>265</ele>
        <time>2015-03-17T08:53:22Z</time>
      </trkpt>
      <trkpt lat="49.07742" lon="6.93672">
        <ele>265</ele>
        <time>2015-03-17T08:53:27Z</time>
      </trkpt>
      <trkpt lat="49.07735" lon="6.93678">
        <ele>266</ele>
        <time>2015-03-17T08:53:32Z</time>
      </trkpt>
      <trkpt lat="49.07721" lon="6.93689">
        <ele>265</ele>
        <time>2015-03-17T08:53:42Z</time>
      </trkpt>
      <trkpt lat="49.07714" lon="6.93695">
        <ele>268</ele>
        <time>2015-03-17T08:53:47Z</time>
      </trkpt>
      <trkpt lat="49.07701" lon="6.93704">
        <ele>269</ele>
        <time>2015-03-17T08:53:57Z</time>
      </trkpt>
      <trkpt lat="49.07687" lon="6.93714">
        <ele>271</ele>
        <time>2015-03-17T08:54:07Z</time>
      </trkpt>
      <trkpt lat="49.07681" lon="6.93718">
        <ele>271</ele>
        <time>2015-03-17T08:54:12Z</time>
      </trkpt>
      <trkpt lat="49.07673" lon="6.93722">
        <ele>272</ele>
        <time>2015-03-17T08:54:17Z</time>
      </trkpt>
      <trkpt lat="49.07662" lon="6.93732">
        <ele>273</ele>
        <time>2015-03-17T08:54:27Z</time>
      </trkpt>
      <trkpt lat="49.07665" lon="6.93742">
        <ele>273</ele>
        <time>2015-03-17T08:54:32Z</time>
      </trkpt>
      <trkpt lat="49.07669" lon="6.93749">
        <ele>274</ele>
        <time>2015-03-17T08:54:37Z</time>
      </trkpt>
      <trkpt lat="49.07674" lon="6.93759">
        <ele>274</ele>
        <time>2015-03-17T08:54:42Z</time>
      </trkpt>
      <trkpt lat="49.07679" lon="6.93768">
        <ele>272</ele>
        <time>2015-03-17T08:54:47Z</time>
      </trkpt>
      <trkpt lat="49.07683" lon="6.93777">
        <ele>272</ele>
        <time>2015-03-17T08:54:52Z</time>
      </trkpt>
      <trkpt lat="49.07686" lon="6.93788">
        <ele>273</ele>
        <time>2015-03-17T08:54:57Z</time>
      </trkpt>
      <trkpt lat="49.0769" lon="6.93799">
        <ele>273</ele>
        <time>2015-03-17T08:55:02Z</time>
      </trkpt>
      <trkpt lat="49.07693" lon="6.9381">
        <ele>273</ele>
        <time>2015-03-17T08:55:07Z</time>
      </trkpt>
      <trkpt lat="49.07698" lon="6.93831">
        <ele>273</ele>
        <time>2015-03-17T08:55:17Z</time>
      </trkpt>
      <trkpt lat="49.077" lon="6.93841">
        <ele>273</ele>
        <time>2015-03-17T08:55:22Z</time>
      </trkpt>
      <trkpt lat="49.07701" lon="6.93852">
        <ele>270</ele>
        <time>2015-03-17T08:55:27Z</time>
      </trkpt>
      <trkpt lat="49.07702" lon="6.93863">
        <ele>271</ele>
        <time>2015-03-17T08:55:32Z</time>
      </trkpt>
      <trkpt lat="49.07705" lon="6.93876">
        <ele>271</ele>
        <time>2015-03-17T08:55:37Z</time>
      </trkpt>
      <trkpt lat="49.07706" lon="6.93888">
        <ele>272</ele>
        <time>2015-03-17T08:55:42Z</time>
      </trkpt>
      <trkpt lat="49.07708" lon="6.93901">
        <ele>272</ele>
        <time>2015-03-17T08:55:47Z</time>
      </trkpt>
      <trkpt lat="49.0771" lon="6.93913">
        <ele>271</ele>
        <time>2015-03-17T08:55:52Z</time>
      </trkpt>
      <trkpt lat="49.07711" lon="6.93924">
        <ele>271</ele>
        <time>2015-03-17T08:55:57Z</time>
      </trkpt>
      <trkpt lat="49.07713" lon="6.93934">
        <ele>269</ele>
        <time>2015-03-17T08:56:02Z</time>
      </trkpt>
      <trkpt lat="49.07715" lon="6.93944">
        <ele>271</ele>
        <time>2015-03-17T08:56:07Z</time>
      </trkpt>
      <trkpt lat="49.07716" lon="6.93955">
        <ele>269</ele>
        <time>2015-03-17T08:56:12Z</time>
      </trkpt>
      <trkpt lat="49.07719" lon="6.93965">
        <ele>270</ele>
        <time>2015-03-17T08:56:17Z</time>
      </trkpt>
      <trkpt lat="49.07723" lon="6.93974">
        <ele>270</ele>
        <time>2015-03-17T08:56:22Z</time>
      </trkpt>
      <trkpt lat="49.07725" lon="6.93986">
        <ele>270</ele>
        <time>2015-03-17T08:56:27Z</time>
      </trkpt>
      <trkpt lat="49.07734" lon="6.94004">
        <ele>269</ele>
        <time>2015-03-17T08:56:37Z</time>
      </trkpt>
      <trkpt lat="49.07738" lon="6.94013">
        <ele>267</ele>
        <time>2015-03-17T08:56:42Z</time>
      </trkpt>
      <trkpt lat="49.07743" lon="6.94022">
        <ele>266</ele>
        <time>2015-03-17T08:56:47Z</time>
      </trkpt>
      <trkpt lat="49.07747" lon="6.94031">
        <ele>265</ele>
        <time>2015-03-17T08:56:52Z</time>
      </trkpt>
      <trkpt lat="49.0775" lon="6.94041">
        <ele>266</ele>
        <time>2015-03-17T08:56:57Z</time>
      </trkpt>
      <trkpt lat="49.07754" lon="6.94051">
        <ele>267</ele>
        <time>2015-03-17T08:57:02Z</time>
      </trkpt>
      <trkpt lat="49.07762" lon="6.94075">
        <ele>269</ele>
        <time>2015-03-17T08:57:12Z</time>
      </trkpt>
      <trkpt lat="49.07766" lon="6.94085">
        <ele>268</ele>
        <time>2015-03-17T08:57:17Z</time>
      </trkpt>
      <trkpt lat="49.07769" lon="6.94096">
        <ele>268</ele>
        <time>2015-03-17T08:57:22Z</time>
      </trkpt>
      <trkpt lat="49.07774" lon="6.94105">
        <ele>267</ele>
        <time>2015-03-17T08:57:27Z</time>
      </trkpt>
      <trkpt lat="49.07784" lon="6.94123">
        <ele>268</ele>
        <time>2015-03-17T08:57:37Z</time>
      </trkpt>
      <trkpt lat="49.07788" lon="6.94134">
        <ele>269</ele>
        <time>2015-03-17T08:57:42Z</time>
      </trkpt>
      <trkpt lat="49.07795" lon="6.9415">
        <ele>273</ele>
        <time>2015-03-17T08:57:52Z</time>
      </trkpt>
      <trkpt lat="49.078" lon="6.94161">
        <ele>273</ele>
        <time>2015-03-17T08:57:57Z</time>
      </trkpt>
      <trkpt lat="49.07803" lon="6.94172">
        <ele>273</ele>
        <time>2015-03-17T08:58:02Z</time>
      </trkpt>
      <trkpt lat="49.07807" lon="6.94183">
        <ele>272</ele>
        <time>2015-03-17T08:58:07Z</time>
      </trkpt>
      <trkpt lat="49.07812" lon="6.94193">
        <ele>269</ele>
        <time>2015-03-17T08:58:12Z</time>
      </trkpt>
      <trkpt lat="49.0782" lon="6.94211">
        <ele>269</ele>
        <time>2015-03-17T08:58:22Z</time>
      </trkpt>
      <trkpt lat="49.07824" lon="6.9422">
        <ele>268</ele>
        <time>2015-03-17T08:58:27Z</time>
      </trkpt>
      <trkpt lat="49.07832" lon="6.9424">
        <ele>267</ele>
        <time>2015-03-17T08:58:37Z</time>
      </trkpt>
      <trkpt lat="49.07836" lon="6.94246">
        <ele>265</ele>
        <time>2015-03-17T08:58:42Z</time>
      </trkpt>
      <trkpt lat="49.07839" lon="6.94255">
        <ele>265</ele>
        <time>2015-03-17T08:58:47Z</time>
      </trkpt>
      <trkpt lat="49.07843" lon="6.94265">
        <ele>264</ele>
        <time>2015-03-17T08:58:52Z</time>
      </trkpt>
      <trkpt lat="49.07847" lon="6.94276">
        <ele>264</ele>
        <time>2015-03-17T08:58:57Z</time>
      </trkpt>
      <trkpt lat="49.07852" lon="6.94284">
        <ele>264</ele>
        <time>2015-03-17T08:59:02Z</time>
      </trkpt>
      <trkpt lat="49.07859" lon="6.94281">
        <ele>265</ele>
        <time>2015-03-17T08:59:07Z</time>
      </trkpt>
      <trkpt lat="49.07865" lon="6.94276">
        <ele>265</ele>
        <time>2015-03-17T08:59:12Z</time>
      </trkpt>
      <trkpt lat="49.07871" lon="6.94271">
        <ele>264</ele>
        <time>2015-03-17T08:59:17Z</time>
      </trkpt>
      <trkpt lat="49.07877" lon="6.94266">
        <ele>262</ele>
        <time>2015-03-17T08:59:22Z</time>
      </trkpt>
      <trkpt lat="49.07883" lon="6.9426">
        <ele>261</ele>
        <time>2015-03-17T08:59:27Z</time>
      </trkpt>
      <trkpt lat="49.07898" lon="6.9425">
        <ele>260</ele>
        <time>2015-03-17T08:59:37Z</time>
      </trkpt>
      <trkpt lat="49.07906" lon="6.94245">
        <ele>259</ele>
        <time>2015-03-17T08:59:42Z</time>
      </trkpt>
      <trkpt lat="49.0792" lon="6.94233">
        <ele>257</ele>
        <time>2015-03-17T08:59:52Z</time>
      </trkpt>
      <trkpt lat="49.07923" lon="6.94228">
        <ele>256</ele>
        <time>2015-03-17T08:59:57Z</time>
      </trkpt>
      <trkpt lat="49.07927" lon="6.94223">
        <ele>254</ele>
        <time>2015-03-17T09:00:02Z</time>
      </trkpt>
      <trkpt lat="49.07932" lon="6.94217">
        <ele>253</ele>
        <time>2015-03-17T09:00:07Z</time>
      </trkpt>
      <trkpt lat="49.07937" lon="6.94211">
        <ele>253</ele>
        <time>2015-03-17T09:00:12Z</time>
      </trkpt>
      <trkpt lat="49.07942" lon="6.94206">
        <ele>253</ele>
        <time>2015-03-17T09:00:17Z</time>
      </trkpt>
      <trkpt lat="49.07948" lon="6.94201">
        <ele>252</ele>
        <time>2015-03-17T09:00:22Z</time>
      </trkpt>
      <trkpt lat="49.07954" lon="6.94195">
        <ele>250</ele>
        <time>2015-03-17T09:00:27Z</time>
      </trkpt>
      <trkpt lat="49.07958" lon="6.94189">
        <ele>248</ele>
        <time>2015-03-17T09:00:32Z</time>
      </trkpt>
      <trkpt lat="49.07962" lon="6.94183">
        <ele>246</ele>
        <time>2015-03-17T09:00:37Z</time>
      </trkpt>
      <trkpt lat="49.0797" lon="6.94173">
        <ele>246</ele>
        <time>2015-03-17T09:00:47Z</time>
      </trkpt>
      <trkpt lat="49.07976" lon="6.94167">
        <ele>248</ele>
        <time>2015-03-17T09:00:52Z</time>
      </trkpt>
      <trkpt lat="49.07982" lon="6.94161">
        <ele>248</ele>
        <time>2015-03-17T09:00:57Z</time>
      </trkpt>
      <trkpt lat="49.07996" lon="6.94157">
        <ele>249</ele>
        <time>2015-03-17T09:01:07Z</time>
      </trkpt>
      <trkpt lat="49.08" lon="6.94159">
        <ele>253</ele>
        <time>2015-03-17T09:01:22Z</time>
      </trkpt>
      <trkpt lat="49.08009" lon="6.94161">
        <ele>255</ele>
        <time>2015-03-17T09:04:32Z</time>
      </trkpt>
      <trkpt lat="49.08016" lon="6.94164">
        <ele>257</ele>
        <time>2015-03-17T09:04:42Z</time>
      </trkpt>
      <trkpt lat="49.08024" lon="6.94161">
        <ele>254</ele>
        <time>2015-03-17T09:04:47Z</time>
      </trkpt>
      <trkpt lat="49.08028" lon="6.94158">
        <ele>252</ele>
        <time>2015-03-17T09:04:52Z</time>
      </trkpt>
      <trkpt lat="49.08035" lon="6.94155">
        <ele>249</ele>
        <time>2015-03-17T09:04:57Z</time>
      </trkpt>
      <trkpt lat="49.08042" lon="6.94155">
        <ele>251</ele>
        <time>2015-03-17T09:05:07Z</time>
      </trkpt>
      <trkpt lat="49.08047" lon="6.94156">
        <ele>252</ele>
        <time>2015-03-17T09:05:17Z</time>
      </trkpt>
      <trkpt lat="49.08054" lon="6.94157">
        <ele>251</ele>
        <time>2015-03-17T09:05:22Z</time>
      </trkpt>
      <trkpt lat="49.08062" lon="6.94158">
        <ele>252</ele>
        <time>2015-03-17T09:05:27Z</time>
      </trkpt>
      <trkpt lat="49.08072" lon="6.94157">
        <ele>252</ele>
        <time>2015-03-17T09:05:32Z</time>
      </trkpt>
      <trkpt lat="49.08081" lon="6.94156">
        <ele>250</ele>
        <time>2015-03-17T09:05:37Z</time>
      </trkpt>
      <trkpt lat="49.0809" lon="6.94152">
        <ele>249</ele>
        <time>2015-03-17T09:05:42Z</time>
      </trkpt>
      <trkpt lat="49.081" lon="6.94151">
        <ele>254</ele>
        <time>2015-03-17T09:05:47Z</time>
      </trkpt>
      <trkpt lat="49.08106" lon="6.9415">
        <ele>254</ele>
        <time>2015-03-17T09:05:52Z</time>
      </trkpt>
      <trkpt lat="49.08115" lon="6.94149">
        <ele>254</ele>
        <time>2015-03-17T09:05:57Z</time>
      </trkpt>
      <trkpt lat="49.08119" lon="6.94149">
        <ele>254</ele>
        <time>2015-03-17T09:06:02Z</time>
      </trkpt>
      <trkpt lat="49.08125" lon="6.94149">
        <ele>256</ele>
        <time>2015-03-17T09:06:07Z</time>
      </trkpt>
      <trkpt lat="49.08133" lon="6.9415">
        <ele>256</ele>
        <time>2015-03-17T09:06:12Z</time>
      </trkpt>
      <trkpt lat="49.0814" lon="6.9415">
        <ele>255</ele>
        <time>2015-03-17T09:06:17Z</time>
      </trkpt>
      <trkpt lat="49.0815" lon="6.94152">
        <ele>258</ele>
        <time>2015-03-17T09:06:27Z</time>
      </trkpt>
      <trkpt lat="49.08161" lon="6.94154">
        <ele>260</ele>
        <time>2015-03-17T09:06:37Z</time>
      </trkpt>
      <trkpt lat="49.08168" lon="6.94154">
        <ele>258</ele>
        <time>2015-03-17T09:06:42Z</time>
      </trkpt>
      <trkpt lat="49.08181" lon="6.94153">
        <ele>258</ele>
        <time>2015-03-17T09:06:52Z</time>
      </trkpt>
      <trkpt lat="49.08189" lon="6.94153">
        <ele>256</ele>
        <time>2015-03-17T09:06:57Z</time>
      </trkpt>
      <trkpt lat="49.08195" lon="6.94153">
        <ele>256</ele>
        <time>2015-03-17T09:07:02Z</time>
      </trkpt>
      <trkpt lat="49.08203" lon="6.94154">
        <ele>258</ele>
        <time>2015-03-17T09:07:07Z</time>
      </trkpt>
      <trkpt lat="49.08225" lon="6.94158">
        <ele>260</ele>
        <time>2015-03-17T09:07:17Z</time>
      </trkpt>
      <trkpt lat="49.08233" lon="6.94161">
        <ele>261</ele>
        <time>2015-03-17T09:07:22Z</time>
      </trkpt>
      <trkpt lat="49.0824" lon="6.94163">
        <ele>263</ele>
        <time>2015-03-17T09:07:27Z</time>
      </trkpt>
      <trkpt lat="49.08246" lon="6.94169">
        <ele>263</ele>
        <time>2015-03-17T09:07:32Z</time>
      </trkpt>
      <trkpt lat="49.08252" lon="6.94173">
        <ele>263</ele>
        <time>2015-03-17T09:07:37Z</time>
      </trkpt>
      <trkpt lat="49.08259" lon="6.94177">
        <ele>262</ele>
        <time>2015-03-17T09:07:42Z</time>
      </trkpt>
      <trkpt lat="49.08265" lon="6.94182">
        <ele>261</ele>
        <time>2015-03-17T09:07:47Z</time>
      </trkpt>
      <trkpt lat="49.0827" lon="6.94187">
        <ele>263</ele>
        <time>2015-03-17T09:07:52Z</time>
      </trkpt>
      <trkpt lat="49.08277" lon="6.9419">
        <ele>259</ele>
        <time>2015-03-17T09:07:57Z</time>
      </trkpt>
      <trkpt lat="49.08283" lon="6.94194">
        <ele>262</ele>
        <time>2015-03-17T09:08:02Z</time>
      </trkpt>
      <trkpt lat="49.0829" lon="6.94202">
        <ele>263</ele>
        <time>2015-03-17T09:08:07Z</time>
      </trkpt>
      <trkpt lat="49.08296" lon="6.94209">
        <ele>264</ele>
        <time>2015-03-17T09:08:12Z</time>
      </trkpt>
      <trkpt lat="49.08302" lon="6.94215">
        <ele>265</ele>
        <time>2015-03-17T09:08:17Z</time>
      </trkpt>
      <trkpt lat="49.08306" lon="6.94224">
        <ele>266</ele>
        <time>2015-03-17T09:08:22Z</time>
      </trkpt>
      <trkpt lat="49.0831" lon="6.94232">
        <ele>262</ele>
        <time>2015-03-17T09:08:27Z</time>
      </trkpt>
      <trkpt lat="49.08316" lon="6.94238">
        <ele>260</ele>
        <time>2015-03-17T09:08:32Z</time>
      </trkpt>
      <trkpt lat="49.0832" lon="6.94245">
        <ele>262</ele>
        <time>2015-03-17T09:08:37Z</time>
      </trkpt>
      <trkpt lat="49.08325" lon="6.94251">
        <ele>263</ele>
        <time>2015-03-17T09:08:42Z</time>
      </trkpt>
      <trkpt lat="49.08331" lon="6.94257">
        <ele>263</ele>
        <time>2015-03-17T09:08:47Z</time>
      </trkpt>
      <trkpt lat="49.08337" lon="6.94264">
        <ele>261</ele>
        <time>2015-03-17T09:08:52Z</time>
      </trkpt>
      <trkpt lat="49.08342" lon="6.9427">
        <ele>262</ele>
        <time>2015-03-17T09:08:57Z</time>
      </trkpt>
      <trkpt lat="49.08352" lon="6.94285">
        <ele>264</ele>
        <time>2015-03-17T09:09:07Z</time>
      </trkpt>
      <trkpt lat="49.08361" lon="6.94297">
        <ele>261</ele>
        <time>2015-03-17T09:09:17Z</time>
      </trkpt>
      <trkpt lat="49.08367" lon="6.94302">
        <ele>262</ele>
        <time>2015-03-17T09:09:22Z</time>
      </trkpt>
      <trkpt lat="49.08373" lon="6.94307">
        <ele>260</ele>
        <time>2015-03-17T09:09:27Z</time>
      </trkpt>
      <trkpt lat="49.08379" lon="6.94313">
        <ele>260</ele>
        <time>2015-03-17T09:09:32Z</time>
      </trkpt>
      <trkpt lat="49.08385" lon="6.94319">
        <ele>259</ele>
        <time>2015-03-17T09:09:37Z</time>
      </trkpt>
      <trkpt lat="49.0839" lon="6.94325">
        <ele>259</ele>
        <time>2015-03-17T09:09:42Z</time>
      </trkpt>
      <trkpt lat="49.08395" lon="6.94331">
        <ele>258</ele>
        <time>2015-03-17T09:09:47Z</time>
      </trkpt>
      <trkpt lat="49.084" lon="6.94337">
        <ele>258</ele>
        <time>2015-03-17T09:09:52Z</time>
      </trkpt>
      <trkpt lat="49.08415" lon="6.94353">
        <ele>261</ele>
        <time>2015-03-17T09:10:02Z</time>
      </trkpt>
      <trkpt lat="49.08419" lon="6.94363">
        <ele>262</ele>
        <time>2015-03-17T09:10:07Z</time>
      </trkpt>
      <trkpt lat="49.08431" lon="6.9438">
        <ele>264</ele>
        <time>2015-03-17T09:10:17Z</time>
      </trkpt>
      <trkpt lat="49.08434" lon="6.94388">
        <ele>265</ele>
        <time>2015-03-17T09:10:22Z</time>
      </trkpt>
      <trkpt lat="49.08437" lon="6.94394">
        <ele>263</ele>
        <time>2015-03-17T09:10:27Z</time>
      </trkpt>
      <trkpt lat="49.08441" lon="6.94401">
        <ele>264</ele>
        <time>2015-03-17T09:10:32Z</time>
      </trkpt>
      <trkpt lat="49.08444" lon="6.94408">
        <ele>263</ele>
        <time>2015-03-17T09:10:37Z</time>
      </trkpt>
      <trkpt lat="49.08447" lon="6.94415">
        <ele>263</ele>
        <time>2015-03-17T09:10:42Z</time>
      </trkpt>
      <trkpt lat="49.08453" lon="6.94424">
        <ele>261</ele>
        <time>2015-03-17T09:10:47Z</time>
      </trkpt>
      <trkpt lat="49.08457" lon="6.94431">
        <ele>259</ele>
        <time>2015-03-17T09:10:52Z</time>
      </trkpt>
      <trkpt lat="49.08462" lon="6.94437">
        <ele>259</ele>
        <time>2015-03-17T09:10:57Z</time>
      </trkpt>
      <trkpt lat="49.08466" lon="6.94444">
        <ele>258</ele>
        <time>2015-03-17T09:11:02Z</time>
      </trkpt>
      <trkpt lat="49.08471" lon="6.9445">
        <ele>255</ele>
        <time>2015-03-17T09:11:07Z</time>
      </trkpt>
      <trkpt lat="49.08479" lon="6.94464">
        <ele>251</ele>
        <time>2015-03-17T09:11:17Z</time>
      </trkpt>
      <trkpt lat="49.08483" lon="6.94471">
        <ele>248</ele>
        <time>2015-03-17T09:11:22Z</time>
      </trkpt>
      <trkpt lat="49.08489" lon="6.94479">
        <ele>244</ele>
        <time>2015-03-17T09:11:27Z</time>
      </trkpt>
      <trkpt lat="49.08493" lon="6.94486">
        <ele>248</ele>
        <time>2015-03-17T09:11:32Z</time>
      </trkpt>
      <trkpt lat="49.08498" lon="6.94497">
        <ele>251</ele>
        <time>2015-03-17T09:11:37Z</time>
      </trkpt>
      <trkpt lat="49.08503" lon="6.94507">
        <ele>254</ele>
        <time>2015-03-17T09:11:42Z</time>
      </trkpt>
      <trkpt lat="49.08508" lon="6.94515">
        <ele>254</ele>
        <time>2015-03-17T09:11:47Z</time>
      </trkpt>
      <trkpt lat="49.08514" lon="6.9453">
        <ele>253</ele>
        <time>2015-03-17T09:11:57Z</time>
      </trkpt>
      <trkpt lat="49.08519" lon="6.94539">
        <ele>252</ele>
        <time>2015-03-17T09:12:02Z</time>
      </trkpt>
      <trkpt lat="49.08523" lon="6.9455">
        <ele>255</ele>
        <time>2015-03-17T09:12:07Z</time>
      </trkpt>
      <trkpt lat="49.08533" lon="6.94572">
        <ele>259</ele>
        <time>2015-03-17T09:12:17Z</time>
      </trkpt>
      <trkpt lat="49.08538" lon="6.9458">
        <ele>258</ele>
        <time>2015-03-17T09:12:22Z</time>
      </trkpt>
      <trkpt lat="49.0855" lon="6.94592">
        <ele>259</ele>
        <time>2015-03-17T09:12:32Z</time>
      </trkpt>
      <trkpt lat="49.08553" lon="6.94597">
        <ele>253</ele>
        <time>2015-03-17T09:12:37Z</time>
      </trkpt>
      <trkpt lat="49.08557" lon="6.94601">
        <ele>251</ele>
        <time>2015-03-17T09:12:42Z</time>
      </trkpt>
      <trkpt lat="49.08561" lon="6.94607">
        <ele>254</ele>
        <time>2015-03-17T09:12:47Z</time>
      </trkpt>
      <trkpt lat="49.08568" lon="6.94615">
        <ele>251</ele>
        <time>2015-03-17T09:12:52Z</time>
      </trkpt>
      <trkpt lat="49.08574" lon="6.94621">
        <ele>253</ele>
        <time>2015-03-17T09:12:57Z</time>
      </trkpt>
      <trkpt lat="49.08579" lon="6.94629">
        <ele>254</ele>
        <time>2015-03-17T09:13:02Z</time>
      </trkpt>
      <trkpt lat="49.08583" lon="6.94635">
        <ele>254</ele>
        <time>2015-03-17T09:13:07Z</time>
      </trkpt>
      <trkpt lat="49.08587" lon="6.9464">
        <ele>254</ele>
        <time>2015-03-17T09:13:12Z</time>
      </trkpt>
      <trkpt lat="49.08594" lon="6.94653">
        <ele>252</ele>
        <time>2015-03-17T09:13:22Z</time>
      </trkpt>
      <trkpt lat="49.08597" lon="6.94659">
        <ele>251</ele>
        <time>2015-03-17T09:13:27Z</time>
      </trkpt>
      <trkpt lat="49.08602" lon="6.94666">
        <ele>252</ele>
        <time>2015-03-17T09:13:32Z</time>
      </trkpt>
      <trkpt lat="49.08607" lon="6.94673">
        <ele>255</ele>
        <time>2015-03-17T09:13:37Z</time>
      </trkpt>
      <trkpt lat="49.08612" lon="6.94679">
        <ele>252</ele>
        <time>2015-03-17T09:13:42Z</time>
      </trkpt>
      <trkpt lat="49.08618" lon="6.94696">
        <ele>253</ele>
        <time>2015-03-17T09:13:52Z</time>
      </trkpt>
      <trkpt lat="49.08623" lon="6.94704">
        <ele>254</ele>
        <time>2015-03-17T09:13:57Z</time>
      </trkpt>
      <trkpt lat="49.08634" lon="6.94722">
        <ele>253</ele>
        <time>2015-03-17T09:14:07Z</time>
      </trkpt>
      <trkpt lat="49.08639" lon="6.94729">
        <ele>250</ele>
        <time>2015-03-17T09:14:12Z</time>
      </trkpt>
      <trkpt lat="49.08643" lon="6.94736">
        <ele>248</ele>
        <time>2015-03-17T09:14:17Z</time>
      </trkpt>
      <trkpt lat="49.08651" lon="6.9475">
        <ele>249</ele>
        <time>2015-03-17T09:14:27Z</time>
      </trkpt>
      <trkpt lat="49.08655" lon="6.94758">
        <ele>249</ele>
        <time>2015-03-17T09:14:32Z</time>
      </trkpt>
      <trkpt lat="49.08667" lon="6.9477">
        <ele>252</ele>
        <time>2015-03-17T09:14:42Z</time>
      </trkpt>
      <trkpt lat="49.08671" lon="6.94774">
        <ele>254</ele>
        <time>2015-03-17T09:14:47Z</time>
      </trkpt>
      <trkpt lat="49.08681" lon="6.94783">
        <ele>254</ele>
        <time>2015-03-17T09:14:57Z</time>
      </trkpt>
      <trkpt lat="49.08683" lon="6.94791">
        <ele>256</ele>
        <time>2015-03-17T09:15:07Z</time>
      </trkpt>
      <trkpt lat="49.08687" lon="6.948">
        <ele>255</ele>
        <time>2015-03-17T09:15:17Z</time>
      </trkpt>
      <trkpt lat="49.08689" lon="6.94808">
        <ele>257</ele>
        <time>2015-03-17T09:15:22Z</time>
      </trkpt>
      <trkpt lat="49.08692" lon="6.94815">
        <ele>256</ele>
        <time>2015-03-17T09:15:32Z</time>
      </trkpt>
      <trkpt lat="49.08695" lon="6.9482">
        <ele>256</ele>
        <time>2015-03-17T09:15:37Z</time>
      </trkpt>
      <trkpt lat="49.087" lon="6.94826">
        <ele>255</ele>
        <time>2015-03-17T09:15:42Z</time>
      </trkpt>
      <trkpt lat="49.08707" lon="6.94836">
        <ele>255</ele>
        <time>2015-03-17T09:15:47Z</time>
      </trkpt>
      <trkpt lat="49.08711" lon="6.94844">
        <ele>255</ele>
        <time>2015-03-17T09:15:52Z</time>
      </trkpt>
      <trkpt lat="49.08718" lon="6.94855">
        <ele>255</ele>
        <time>2015-03-17T09:15:57Z</time>
      </trkpt>
      <trkpt lat="49.08722" lon="6.94865">
        <ele>253</ele>
        <time>2015-03-17T09:16:02Z</time>
      </trkpt>
      <trkpt lat="49.08728" lon="6.9488">
        <ele>249</ele>
        <time>2015-03-17T09:16:12Z</time>
      </trkpt>
      <trkpt lat="49.08739" lon="6.94891">
        <ele>252</ele>
        <time>2015-03-17T09:16:22Z</time>
      </trkpt>
      <trkpt lat="49.08746" lon="6.949">
        <ele>252</ele>
        <time>2015-03-17T09:16:32Z</time>
      </trkpt>
      <trkpt lat="49.08753" lon="6.94915">
        <ele>247</ele>
        <time>2015-03-17T09:16:42Z</time>
      </trkpt>
      <trkpt lat="49.08757" lon="6.94923">
        <ele>244</ele>
        <time>2015-03-17T09:16:47Z</time>
      </trkpt>
      <trkpt lat="49.08762" lon="6.94927">
        <ele>246</ele>
        <time>2015-03-17T09:16:52Z</time>
      </trkpt>
      <trkpt lat="49.08768" lon="6.94933">
        <ele>244</ele>
        <time>2015-03-17T09:17:02Z</time>
      </trkpt>
      <trkpt lat="49.08776" lon="6.94935">
        <ele>242</ele>
        <time>2015-03-17T09:17:12Z</time>
      </trkpt>
      <trkpt lat="49.08786" lon="6.94951">
        <ele>240</ele>
        <time>2015-03-17T09:17:22Z</time>
      </trkpt>
      <trkpt lat="49.08791" lon="6.94957">
        <ele>241</ele>
        <time>2015-03-17T09:17:27Z</time>
      </trkpt>
      <trkpt lat="49.08795" lon="6.94963">
        <ele>242</ele>
        <time>2015-03-17T09:17:32Z</time>
      </trkpt>
      <trkpt lat="49.08801" lon="6.94973">
        <ele>243</ele>
        <time>2015-03-17T09:17:37Z</time>
      </trkpt>
      <trkpt lat="49.08807" lon="6.94978">
        <ele>244</ele>
        <time>2015-03-17T09:17:42Z</time>
      </trkpt>
      <trkpt lat="49.08809" lon="6.94986">
        <ele>248</ele>
        <time>2015-03-17T09:17:47Z</time>
      </trkpt>
      <trkpt lat="49.0881" lon="6.94995">
        <ele>249</ele>
        <time>2015-03-17T09:18:02Z</time>
      </trkpt>
      <trkpt lat="49.08822" lon="6.95016">
        <ele>250</ele>
        <time>2015-03-17T09:20:02Z</time>
      </trkpt>
      <trkpt lat="49.08827" lon="6.95023">
        <ele>250</ele>
        <time>2015-03-17T09:20:07Z</time>
      </trkpt>
      <trkpt lat="49.0883" lon="6.95031">
        <ele>249</ele>
        <time>2015-03-17T09:20:12Z</time>
      </trkpt>
      <trkpt lat="49.08836" lon="6.95044">
        <ele>247</ele>
        <time>2015-03-17T09:20:22Z</time>
      </trkpt>
      <trkpt lat="49.08839" lon="6.9505">
        <ele>249</ele>
        <time>2015-03-17T09:20:27Z</time>
      </trkpt>
      <trkpt lat="49.08847" lon="6.95068">
        <ele>250</ele>
        <time>2015-03-17T09:20:37Z</time>
      </trkpt>
      <trkpt lat="49.0885" lon="6.95077">
        <ele>250</ele>
        <time>2015-03-17T09:20:42Z</time>
      </trkpt>
      <trkpt lat="49.08854" lon="6.95085">
        <ele>251</ele>
        <time>2015-03-17T09:20:47Z</time>
      </trkpt>
      <trkpt lat="49.08858" lon="6.95092">
        <ele>250</ele>
        <time>2015-03-17T09:20:52Z</time>
      </trkpt>
      <trkpt lat="49.08862" lon="6.95098">
        <ele>250</ele>
        <time>2015-03-17T09:20:57Z</time>
      </trkpt>
      <trkpt lat="49.08866" lon="6.95108">
        <ele>252</ele>
        <time>2015-03-17T09:21:02Z</time>
      </trkpt>
      <trkpt lat="49.0887" lon="6.95117">
        <ele>251</ele>
        <time>2015-03-17T09:21:17Z</time>
      </trkpt>
      <trkpt lat="49.08871" lon="6.95127">
        <ele>253</ele>
        <time>2015-03-17T09:21:27Z</time>
      </trkpt>
      <trkpt lat="49.08874" lon="6.95132">
        <ele>252</ele>
        <time>2015-03-17T09:21:32Z</time>
      </trkpt>
      <trkpt lat="49.08877" lon="6.95138">
        <ele>251</ele>
        <time>2015-03-17T09:21:37Z</time>
      </trkpt>
      <trkpt lat="49.08881" lon="6.95145">
        <ele>251</ele>
        <time>2015-03-17T09:21:42Z</time>
      </trkpt>
      <trkpt lat="49.0889" lon="6.95155">
        <ele>246</ele>
        <time>2015-03-17T09:22:02Z</time>
      </trkpt>
      <trkpt lat="49.08897" lon="6.95169">
        <ele>245</ele>
        <time>2015-03-17T09:22:12Z</time>
      </trkpt>
      <trkpt lat="49.089" lon="6.95177">
        <ele>245</ele>
        <time>2015-03-17T09:22:17Z</time>
      </trkpt>
      <trkpt lat="49.08904" lon="6.95183">
        <ele>244</ele>
        <time>2015-03-17T09:22:22Z</time>
      </trkpt>
      <trkpt lat="49.08907" lon="6.9519">
        <ele>245</ele>
        <time>2015-03-17T09:22:27Z</time>
      </trkpt>
      <trkpt lat="49.08912" lon="6.952">
        <ele>246</ele>
        <time>2015-03-17T09:22:32Z</time>
      </trkpt>
      <trkpt lat="49.08915" lon="6.95209">
        <ele>247</ele>
        <time>2015-03-17T09:22:37Z</time>
      </trkpt>
      <trkpt lat="49.0892" lon="6.95221">
        <ele>248</ele>
        <time>2015-03-17T09:22:47Z</time>
      </trkpt>
      <trkpt lat="49.08924" lon="6.95232">
        <ele>251</ele>
        <time>2015-03-17T09:22:57Z</time>
      </trkpt>
      <trkpt lat="49.08926" lon="6.95242">
        <ele>250</ele>
        <time>2015-03-17T09:23:02Z</time>
      </trkpt>
      <trkpt lat="49.08927" lon="6.95251">
        <ele>249</ele>
        <time>2015-03-17T09:23:07Z</time>
      </trkpt>
      <trkpt lat="49.08928" lon="6.95258">
        <ele>246</ele>
        <time>2015-03-17T09:23:12Z</time>
      </trkpt>
      <trkpt lat="49.08931" lon="6.95276">
        <ele>247</ele>
        <time>2015-03-17T09:23:22Z</time>
      </trkpt>
      <trkpt lat="49.08934" lon="6.95283">
        <ele>244</ele>
        <time>2015-03-17T09:23:27Z</time>
      </trkpt>
      <trkpt lat="49.08938" lon="6.95295">
        <ele>239</ele>
        <time>2015-03-17T09:23:37Z</time>
      </trkpt>
      <trkpt lat="49.08942" lon="6.95305">
        <ele>240</ele>
        <time>2015-03-17T09:23:42Z</time>
      </trkpt>
      <trkpt lat="49.08947" lon="6.95315">
        <ele>240</ele>
        <time>2015-03-17T09:23:47Z</time>
      </trkpt>
      <trkpt lat="49.08954" lon="6.95334">
        <ele>240</ele>
        <time>2015-03-17T09:23:57Z</time>
      </trkpt>
      <trkpt lat="49.08955" lon="6.95343">
        <ele>239</ele>
        <time>2015-03-17T09:24:02Z</time>
      </trkpt>
      <trkpt lat="49.08958" lon="6.95351">
        <ele>236</ele>
        <time>2015-03-17T09:24:07Z</time>
      </trkpt>
      <trkpt lat="49.08961" lon="6.95362">
        <ele>237</ele>
        <time>2015-03-17T09:24:12Z</time>
      </trkpt>
      <trkpt lat="49.08965" lon="6.95369">
        <ele>234</ele>
        <time>2015-03-17T09:24:17Z</time>
      </trkpt>
      <trkpt lat="49.08973" lon="6.95384">
        <ele>236</ele>
        <time>2015-03-17T09:24:27Z</time>
      </trkpt>
      <trkpt lat="49.08977" lon="6.95383">
        <ele>237</ele>
        <time>2015-03-17T09:24:47Z</time>
      </trkpt>
      <trkpt lat="49.08993" lon="6.95288">
        <ele>227</ele>
        <time>2015-03-17T09:25:42Z</time>
      </trkpt>
      <trkpt lat="49.08996" lon="6.95276">
        <ele>225</ele>
        <time>2015-03-17T09:25:47Z</time>
      </trkpt>
      <trkpt lat="49.08997" lon="6.95266">
        <ele>224</ele>
        <time>2015-03-17T09:25:52Z</time>
      </trkpt>
      <trkpt lat="49.08996" lon="6.95257">
        <ele>220</ele>
        <time>2015-03-17T09:25:57Z</time>
      </trkpt>
      <trkpt lat="49.08995" lon="6.9525">
        <ele>216</ele>
        <time>2015-03-17T09:26:02Z</time>
      </trkpt>
      <trkpt lat="49.08996" lon="6.9523">
        <ele>217</ele>
        <time>2015-03-17T09:26:12Z</time>
      </trkpt>
      <trkpt lat="49.08999" lon="6.95221">
        <ele>218</ele>
        <time>2015-03-17T09:26:17Z</time>
      </trkpt>
      <trkpt lat="49.09002" lon="6.9521">
        <ele>221</ele>
        <time>2015-03-17T09:26:22Z</time>
      </trkpt>
      <trkpt lat="49.09007" lon="6.95185">
        <ele>225</ele>
        <time>2015-03-17T09:26:32Z</time>
      </trkpt>
      <trkpt lat="49.09008" lon="6.95171">
        <ele>228</ele>
        <time>2015-03-17T09:26:37Z</time>
      </trkpt>
      <trkpt lat="49.09008" lon="6.95159">
        <ele>228</ele>
        <time>2015-03-17T09:26:42Z</time>
      </trkpt>
      <trkpt lat="49.09012" lon="6.95148">
        <ele>229</ele>
        <time>2015-03-17T09:26:47Z</time>
      </trkpt>
      <trkpt lat="49.09012" lon="6.95138">
        <ele>228</ele>
        <time>2015-03-17T09:26:52Z</time>
      </trkpt>
      <trkpt lat="49.09012" lon="6.95125">
        <ele>231</ele>
        <time>2015-03-17T09:26:57Z</time>
      </trkpt>
      <trkpt lat="49.09012" lon="6.95114">
        <ele>226</ele>
        <time>2015-03-17T09:27:02Z</time>
      </trkpt>
      <trkpt lat="49.09012" lon="6.95103">
        <ele>228</ele>
        <time>2015-03-17T09:27:07Z</time>
      </trkpt>
      <trkpt lat="49.0901" lon="6.9509">
        <ele>230</ele>
        <time>2015-03-17T09:27:12Z</time>
      </trkpt>
      <trkpt lat="49.09008" lon="6.95076">
        <ele>230</ele>
        <time>2015-03-17T09:27:17Z</time>
      </trkpt>
      <trkpt lat="49.09006" lon="6.95064">
        <ele>231</ele>
        <time>2015-03-17T09:27:22Z</time>
      </trkpt>
      <trkpt lat="49.09005" lon="6.95052">
        <ele>231</ele>
        <time>2015-03-17T09:27:27Z</time>
      </trkpt>
      <trkpt lat="49.09003" lon="6.95041">
        <ele>231</ele>
        <time>2015-03-17T09:27:32Z</time>
      </trkpt>
      <trkpt lat="49.09003" lon="6.95021">
        <ele>229</ele>
        <time>2015-03-17T09:27:42Z</time>
      </trkpt>
      <trkpt lat="49.0901" lon="6.95021">
        <ele>223</ele>
        <time>2015-03-17T09:27:52Z</time>
      </trkpt>
      <trkpt lat="49.09016" lon="6.95021">
        <ele>224</ele>
        <time>2015-03-17T09:27:57Z</time>
      </trkpt>
      <trkpt lat="49.09025" lon="6.9502">
        <ele>222</ele>
        <time>2015-03-17T09:28:07Z</time>
      </trkpt>
      <trkpt lat="49.0903" lon="6.95018">
        <ele>225</ele>
        <time>2015-03-17T09:28:17Z</time>
      </trkpt>
      <trkpt lat="49.0905" lon="6.95019">
        <ele>221</ele>
        <time>2015-03-17T09:28:47Z</time>
      </trkpt>
      <trkpt lat="49.09055" lon="6.95017">
        <ele>221</ele>
        <time>2015-03-17T09:28:52Z</time>
      </trkpt>
      <trkpt lat="49.09063" lon="6.95009">
        <ele>216</ele>
        <time>2015-03-17T09:29:02Z</time>
      </trkpt>
      <trkpt lat="49.09071" lon="6.95003">
        <ele>212</ele>
        <time>2015-03-17T09:29:07Z</time>
      </trkpt>
      <trkpt lat="49.09079" lon="6.94995">
        <ele>212</ele>
        <time>2015-03-17T09:29:12Z</time>
      </trkpt>
      <trkpt lat="49.09084" lon="6.9499">
        <ele>213</ele>
        <time>2015-03-17T09:29:17Z</time>
      </trkpt>
      <trkpt lat="49.09095" lon="6.94978">
        <ele>212</ele>
        <time>2015-03-17T09:29:27Z</time>
      </trkpt>
      <trkpt lat="49.09105" lon="6.94967">
        <ele>215</ele>
        <time>2015-03-17T09:29:37Z</time>
      </trkpt>
      <trkpt lat="49.09109" lon="6.94961">
        <ele>216</ele>
        <time>2015-03-17T09:29:42Z</time>
      </trkpt>
      <trkpt lat="49.09113" lon="6.94955">
        <ele>213</ele>
        <time>2015-03-17T09:29:52Z</time>
      </trkpt>
      <trkpt lat="49.09116" lon="6.94944">
        <ele>218</ele>
        <time>2015-03-17T09:29:57Z</time>
      </trkpt>
      <trkpt lat="49.09118" lon="6.94934">
        <ele>216</ele>
        <time>2015-03-17T09:30:02Z</time>
      </trkpt>
      <trkpt lat="49.09123" lon="6.94915">
        <ele>219</ele>
        <time>2015-03-17T09:30:12Z</time>
      </trkpt>
      <trkpt lat="49.09125" lon="6.94905">
        <ele>222</ele>
        <time>2015-03-17T09:30:17Z</time>
      </trkpt>
      <trkpt lat="49.09127" lon="6.94895">
        <ele>223</ele>
        <time>2015-03-17T09:30:22Z</time>
      </trkpt>
      <trkpt lat="49.09129" lon="6.94885">
        <ele>224</ele>
        <time>2015-03-17T09:30:27Z</time>
      </trkpt>
      <trkpt lat="49.0913" lon="6.94876">
        <ele>226</ele>
        <time>2015-03-17T09:30:32Z</time>
      </trkpt>
      <trkpt lat="49.09132" lon="6.94862">
        <ele>225</ele>
        <time>2015-03-17T09:30:42Z</time>
      </trkpt>
      <trkpt lat="49.09135" lon="6.94845">
        <ele>224</ele>
        <time>2015-03-17T09:30:52Z</time>
      </trkpt>
      <trkpt lat="49.09135" lon="6.94834">
        <ele>222</ele>
        <time>2015-03-17T09:30:57Z</time>
      </trkpt>
      <trkpt lat="49.09137" lon="6.94823">
        <ele>226</ele>
        <time>2015-03-17T09:31:02Z</time>
      </trkpt>
      <trkpt lat="49.09139" lon="6.94816">
        <ele>227</ele>
        <time>2015-03-17T09:31:07Z</time>
      </trkpt>
      <trkpt lat="49.09139" lon="6.94807">
        <ele>227</ele>
        <time>2015-03-17T09:31:12Z</time>
      </trkpt>
      <trkpt lat="49.09139" lon="6.94796">
        <ele>227</ele>
        <time>2015-03-17T09:31:22Z</time>
      </trkpt>
      <trkpt lat="49.09142" lon="6.94788">
        <ele>228</ele>
        <time>2015-03-17T09:31:27Z</time>
      </trkpt>
      <trkpt lat="49.09145" lon="6.94779">
        <ele>229</ele>
        <time>2015-03-17T09:31:32Z</time>
      </trkpt>
      <trkpt lat="49.09146" lon="6.94765">
        <ele>231</ele>
        <time>2015-03-17T09:31:37Z</time>
      </trkpt>
      <trkpt lat="49.09145" lon="6.94753">
        <ele>233</ele>
        <time>2015-03-17T09:31:42Z</time>
      </trkpt>
      <trkpt lat="49.09145" lon="6.94746">
        <ele>234</ele>
        <time>2015-03-17T09:31:47Z</time>
      </trkpt>
      <trkpt lat="49.09144" lon="6.94737">
        <ele>234</ele>
        <time>2015-03-17T09:31:57Z</time>
      </trkpt>
      <trkpt lat="49.09143" lon="6.94722">
        <ele>234</ele>
        <time>2015-03-17T09:32:07Z</time>
      </trkpt>
      <trkpt lat="49.09141" lon="6.9471">
        <ele>235</ele>
        <time>2015-03-17T09:32:17Z</time>
      </trkpt>
      <trkpt lat="49.09141" lon="6.94702">
        <ele>233</ele>
        <time>2015-03-17T09:32:22Z</time>
      </trkpt>
      <trkpt lat="49.09143" lon="6.94691">
        <ele>230</ele>
        <time>2015-03-17T09:32:27Z</time>
      </trkpt>
      <trkpt lat="49.09144" lon="6.9468">
        <ele>229</ele>
        <time>2015-03-17T09:32:32Z</time>
      </trkpt>
      <trkpt lat="49.09146" lon="6.94673">
        <ele>225</ele>
        <time>2015-03-17T09:32:37Z</time>
      </trkpt>
      <trkpt lat="49.09148" lon="6.94666">
        <ele>226</ele>
        <time>2015-03-17T09:32:42Z</time>
      </trkpt>
      <trkpt lat="49.09152" lon="6.94646">
        <ele>229</ele>
        <time>2015-03-17T09:32:52Z</time>
      </trkpt>
      <trkpt lat="49.09151" lon="6.94638">
        <ele>229</ele>
        <time>2015-03-17T09:32:57Z</time>
      </trkpt>
      <trkpt lat="49.09147" lon="6.94629">
        <ele>229</ele>
        <time>2015-03-17T09:33:07Z</time>
      </trkpt>
      <trkpt lat="49.09146" lon="6.94621">
        <ele>230</ele>
        <time>2015-03-17T09:33:17Z</time>
      </trkpt>
      <trkpt lat="49.09147" lon="6.94612">
        <ele>227</ele>
        <time>2015-03-17T09:33:22Z</time>
      </trkpt>
      <trkpt lat="49.09148" lon="6.94603">
        <ele>228</ele>
        <time>2015-03-17T09:33:27Z</time>
      </trkpt>
      <trkpt lat="49.09145" lon="6.94592">
        <ele>227</ele>
        <time>2015-03-17T09:33:37Z</time>
      </trkpt>
      <trkpt lat="49.09143" lon="6.94582">
        <ele>229</ele>
        <time>2015-03-17T09:33:42Z</time>
      </trkpt>
      <trkpt lat="49.09141" lon="6.9457">
        <ele>229</ele>
        <time>2015-03-17T09:33:47Z</time>
      </trkpt>
      <trkpt lat="49.09139" lon="6.94558">
        <ele>232</ele>
        <time>2015-03-17T09:33:52Z</time>
      </trkpt>
      <trkpt lat="49.09138" lon="6.94547">
        <ele>232</ele>
        <time>2015-03-17T09:33:57Z</time>
      </trkpt>
      <trkpt lat="49.09134" lon="6.94537">
        <ele>233</ele>
        <time>2015-03-17T09:34:02Z</time>
      </trkpt>
      <trkpt lat="49.09132" lon="6.9453">
        <ele>234</ele>
        <time>2015-03-17T09:34:07Z</time>
      </trkpt>
      <trkpt lat="49.09131" lon="6.94516">
        <ele>233</ele>
        <time>2015-03-17T09:34:17Z</time>
      </trkpt>
      <trkpt lat="49.09131" lon="6.94507">
        <ele>233</ele>
        <time>2015-03-17T09:34:22Z</time>
      </trkpt>
      <trkpt lat="49.09131" lon="6.94498">
        <ele>231</ele>
        <time>2015-03-17T09:34:27Z</time>
      </trkpt>
      <trkpt lat="49.09127" lon="6.94483">
        <ele>233</ele>
        <time>2015-03-17T09:34:37Z</time>
      </trkpt>
      <trkpt lat="49.09127" lon="6.9447">
        <ele>231</ele>
        <time>2015-03-17T09:34:47Z</time>
      </trkpt>
      <trkpt lat="49.09128" lon="6.94456">
        <ele>231</ele>
        <time>2015-03-17T09:34:57Z</time>
      </trkpt>
      <trkpt lat="49.09127" lon="6.94447">
        <ele>231</ele>
        <time>2015-03-17T09:35:02Z</time>
      </trkpt>
      <trkpt lat="49.09125" lon="6.94438">
        <ele>231</ele>
        <time>2015-03-17T09:35:07Z</time>
      </trkpt>
      <trkpt lat="49.09124" lon="6.9443">
        <ele>232</ele>
        <time>2015-03-17T09:35:12Z</time>
      </trkpt>
      <trkpt lat="49.09124" lon="6.94423">
        <ele>233</ele>
        <time>2015-03-17T09:35:17Z</time>
      </trkpt>
      <trkpt lat="49.09124" lon="6.94413">
        <ele>236</ele>
        <time>2015-03-17T09:35:27Z</time>
      </trkpt>
      <trkpt lat="49.09123" lon="6.94399">
        <ele>241</ele>
        <time>2015-03-17T09:35:37Z</time>
      </trkpt>
      <trkpt lat="49.09121" lon="6.94391">
        <ele>240</ele>
        <time>2015-03-17T09:35:42Z</time>
      </trkpt>
      <trkpt lat="49.09115" lon="6.94372">
        <ele>242</ele>
        <time>2015-03-17T09:35:52Z</time>
      </trkpt>
      <trkpt lat="49.09114" lon="6.94358">
        <ele>241</ele>
        <time>2015-03-17T09:36:02Z</time>
      </trkpt>
      <trkpt lat="49.09115" lon="6.94339">
        <ele>235</ele>
        <time>2015-03-17T09:36:12Z</time>
      </trkpt>
      <trkpt lat="49.09115" lon="6.94328">
        <ele>236</ele>
        <time>2015-03-17T09:36:17Z</time>
      </trkpt>
      <trkpt lat="49.09115" lon="6.94318">
        <ele>239</ele>
        <time>2015-03-17T09:36:22Z</time>
      </trkpt>
      <trkpt lat="49.09113" lon="6.94305">
        <ele>239</ele>
        <time>2015-03-17T09:36:32Z</time>
      </trkpt>
      <trkpt lat="49.09113" lon="6.94295">
        <ele>238</ele>
        <time>2015-03-17T09:36:37Z</time>
      </trkpt>
      <trkpt lat="49.09112" lon="6.94284">
        <ele>237</ele>
        <time>2015-03-17T09:36:42Z</time>
      </trkpt>
      <trkpt lat="49.09112" lon="6.94272">
        <ele>236</ele>
        <time>2015-03-17T09:36:47Z</time>
      </trkpt>
      <trkpt lat="49.09111" lon="6.94261">
        <ele>236</ele>
        <time>2015-03-17T09:36:52Z</time>
      </trkpt>
      <trkpt lat="49.09111" lon="6.94251">
        <ele>237</ele>
        <time>2015-03-17T09:36:57Z</time>
      </trkpt>
      <trkpt lat="49.09109" lon="6.94242">
        <ele>234</ele>
        <time>2015-03-17T09:37:02Z</time>
      </trkpt>
      <trkpt lat="49.09105" lon="6.94235">
        <ele>231</ele>
        <time>2015-03-17T09:37:07Z</time>
      </trkpt>
      <trkpt lat="49.09098" lon="6.94218">
        <ele>235</ele>
        <time>2015-03-17T09:37:17Z</time>
      </trkpt>
      <trkpt lat="49.0909" lon="6.942">
        <ele>237</ele>
        <time>2015-03-17T09:37:27Z</time>
      </trkpt>
      <trkpt lat="49.09082" lon="6.94178">
        <ele>242</ele>
        <time>2015-03-17T09:37:37Z</time>
      </trkpt>
      <trkpt lat="49.09076" lon="6.94165">
        <ele>242</ele>
        <time>2015-03-17T09:37:47Z</time>
      </trkpt>
      <trkpt lat="49.09074" lon="6.94157">
        <ele>239</ele>
        <time>2015-03-17T09:37:52Z</time>
      </trkpt>
      <trkpt lat="49.0907" lon="6.94148">
        <ele>241</ele>
        <time>2015-03-17T09:38:02Z</time>
      </trkpt>
      <trkpt lat="49.09068" lon="6.9414">
        <ele>242</ele>
        <time>2015-03-17T09:38:07Z</time>
      </trkpt>
      <trkpt lat="49.09066" lon="6.94131">
        <ele>241</ele>
        <time>2015-03-17T09:38:12Z</time>
      </trkpt>
      <trkpt lat="49.09059" lon="6.94115">
        <ele>241</ele>
        <time>2015-03-17T09:38:22Z</time>
      </trkpt>
      <trkpt lat="49.09055" lon="6.94103">
        <ele>238</ele>
        <time>2015-03-17T09:38:32Z</time>
      </trkpt>
      <trkpt lat="49.09051" lon="6.94094">
        <ele>239</ele>
        <time>2015-03-17T09:38:37Z</time>
      </trkpt>
      <trkpt lat="49.09045" lon="6.94074">
        <ele>233</ele>
        <time>2015-03-17T09:38:47Z</time>
      </trkpt>
      <trkpt lat="49.09042" lon="6.94056">
        <ele>237</ele>
        <time>2015-03-17T09:38:57Z</time>
      </trkpt>
      <trkpt lat="49.09039" lon="6.94046">
        <ele>239</ele>
        <time>2015-03-17T09:39:02Z</time>
      </trkpt>
      <trkpt lat="49.09038" lon="6.94039">
        <ele>240</ele>
        <time>2015-03-17T09:39:07Z</time>
      </trkpt>
      <trkpt lat="49.0904" lon="6.94033">
        <ele>244</ele>
        <time>2015-03-17T09:39:12Z</time>
      </trkpt>
      <trkpt lat="49.09045" lon="6.94028">
        <ele>244</ele>
        <time>2015-03-17T09:39:22Z</time>
      </trkpt>
      <trkpt lat="49.09052" lon="6.94023">
        <ele>242</ele>
        <time>2015-03-17T09:39:32Z</time>
      </trkpt>
      <trkpt lat="49.09056" lon="6.94022">
        <ele>241</ele>
        <time>2015-03-17T09:39:37Z</time>
      </trkpt>
      <trkpt lat="49.09068" lon="6.94023">
        <ele>241</ele>
        <time>2015-03-17T09:39:47Z</time>
      </trkpt>
      <trkpt lat="49.09075" lon="6.94021">
        <ele>243</ele>
        <time>2015-03-17T09:39:52Z</time>
      </trkpt>
      <trkpt lat="49.09085" lon="6.94023">
        <ele>244</ele>
        <time>2015-03-17T09:40:02Z</time>
      </trkpt>
      <trkpt lat="49.09095" lon="6.94025">
        <ele>247</ele>
        <time>2015-03-17T09:40:07Z</time>
      </trkpt>
      <trkpt lat="49.09105" lon="6.94027">
        <ele>248</ele>
        <time>2015-03-17T09:40:12Z</time>
      </trkpt>
      <trkpt lat="49.09119" lon="6.94033">
        <ele>248</ele>
        <time>2015-03-17T09:40:22Z</time>
      </trkpt>
      <trkpt lat="49.09126" lon="6.94037">
        <ele>248</ele>
        <time>2015-03-17T09:40:27Z</time>
      </trkpt>
      <trkpt lat="49.09132" lon="6.94041">
        <ele>247</ele>
        <time>2015-03-17T09:40:32Z</time>
      </trkpt>
      <trkpt lat="49.09145" lon="6.9405">
        <ele>245</ele>
        <time>2015-03-17T09:40:42Z</time>
      </trkpt>
      <trkpt lat="49.09151" lon="6.94055">
        <ele>243</ele>
        <time>2015-03-17T09:40:47Z</time>
      </trkpt>
      <trkpt lat="49.09157" lon="6.94059">
        <ele>243</ele>
        <time>2015-03-17T09:40:52Z</time>
      </trkpt>
      <trkpt lat="49.09165" lon="6.94063">
        <ele>241</ele>
        <time>2015-03-17T09:41:02Z</time>
      </trkpt>
      <trkpt lat="49.09174" lon="6.9407">
        <ele>239</ele>
        <time>2015-03-17T09:41:07Z</time>
      </trkpt>
      <trkpt lat="49.09181" lon="6.94071">
        <ele>237</ele>
        <time>2015-03-17T09:41:12Z</time>
      </trkpt>
      <trkpt lat="49.0919" lon="6.94076">
        <ele>236</ele>
        <time>2015-03-17T09:41:22Z</time>
      </trkpt>
      <trkpt lat="49.09199" lon="6.94084">
        <ele>235</ele>
        <time>2015-03-17T09:41:32Z</time>
      </trkpt>
      <trkpt lat="49.09204" lon="6.94082">
        <ele>234</ele>
        <time>2015-03-17T09:41:37Z</time>
      </trkpt>
      <trkpt lat="49.09207" lon="6.94071">
        <ele>231</ele>
        <time>2015-03-17T09:41:52Z</time>
      </trkpt>
      <trkpt lat="49.09212" lon="6.9412">
        <ele>232</ele>
        <time>2015-03-17T09:42:32Z</time>
      </trkpt>
      <trkpt lat="49.09214" lon="6.94135">
        <ele>236</ele>
        <time>2015-03-17T09:42:37Z</time>
      </trkpt>
      <trkpt lat="49.09216" lon="6.94146">
        <ele>236</ele>
        <time>2015-03-17T09:42:42Z</time>
      </trkpt>
      <trkpt lat="49.09219" lon="6.94157">
        <ele>235</ele>
        <time>2015-03-17T09:42:47Z</time>
      </trkpt>
      <trkpt lat="49.09221" lon="6.94165">
        <ele>234</ele>
        <time>2015-03-17T09:42:52Z</time>
      </trkpt>
      <trkpt lat="49.09224" lon="6.94173">
        <ele>235</ele>
        <time>2015-03-17T09:42:57Z</time>
      </trkpt>
      <trkpt lat="49.09229" lon="6.94181">
        <ele>237</ele>
        <time>2015-03-17T09:43:02Z</time>
      </trkpt>
      <trkpt lat="49.09232" lon="6.9419">
        <ele>235</ele>
        <time>2015-03-17T09:43:07Z</time>
      </trkpt>
      <trkpt lat="49.09235" lon="6.94197">
        <ele>235</ele>
        <time>2015-03-17T09:43:12Z</time>
      </trkpt>
      <trkpt lat="49.09241" lon="6.94217">
        <ele>235</ele>
        <time>2015-03-17T09:43:22Z</time>
      </trkpt>
      <trkpt lat="49.09244" lon="6.94226">
        <ele>236</ele>
        <time>2015-03-17T09:43:27Z</time>
      </trkpt>
      <trkpt lat="49.09247" lon="6.94234">
        <ele>238</ele>
        <time>2015-03-17T09:43:32Z</time>
      </trkpt>
      <trkpt lat="49.09252" lon="6.94241">
        <ele>237</ele>
        <time>2015-03-17T09:43:37Z</time>
      </trkpt>
      <trkpt lat="49.09255" lon="6.94248">
        <ele>237</ele>
        <time>2015-03-17T09:43:42Z</time>
      </trkpt>
      <trkpt lat="49.09258" lon="6.94256">
        <ele>237</ele>
        <time>2015-03-17T09:43:47Z</time>
      </trkpt>
      <trkpt lat="49.09261" lon="6.94266">
        <ele>237</ele>
        <time>2015-03-17T09:43:52Z</time>
      </trkpt>
      <trkpt lat="49.09263" lon="6.94276">
        <ele>236</ele>
        <time>2015-03-17T09:43:57Z</time>
      </trkpt>
      <trkpt lat="49.09267" lon="6.94284">
        <ele>237</ele>
        <time>2015-03-17T09:44:02Z</time>
      </trkpt>
      <trkpt lat="49.09271" lon="6.94292">
        <ele>235</ele>
        <time>2015-03-17T09:44:07Z</time>
      </trkpt>
      <trkpt lat="49.09274" lon="6.94301">
        <ele>236</ele>
        <time>2015-03-17T09:44:12Z</time>
      </trkpt>
      <trkpt lat="49.09279" lon="6.9432">
        <ele>234</ele>
        <time>2015-03-17T09:44:22Z</time>
      </trkpt>
      <trkpt lat="49.09282" lon="6.94329">
        <ele>234</ele>
        <time>2015-03-17T09:44:27Z</time>
      </trkpt>
      <trkpt lat="49.09287" lon="6.94346">
        <ele>232</ele>
        <time>2015-03-17T09:44:37Z</time>
      </trkpt>
      <trkpt lat="49.09289" lon="6.94354">
        <ele>232</ele>
        <time>2015-03-17T09:44:42Z</time>
      </trkpt>
      <trkpt lat="49.09292" lon="6.94362">
        <ele>232</ele>
        <time>2015-03-17T09:44:47Z</time>
      </trkpt>
      <trkpt lat="49.09297" lon="6.9437">
        <ele>231</ele>
        <time>2015-03-17T09:44:52Z</time>
      </trkpt>
      <trkpt lat="49.09303" lon="6.94374">
        <ele>232</ele>
        <time>2015-03-17T09:44:57Z</time>
      </trkpt>
      <trkpt lat="49.0931" lon="6.94378">
        <ele>232</ele>
        <time>2015-03-17T09:45:02Z</time>
      </trkpt>
      <trkpt lat="49.09316" lon="6.94381">
        <ele>231</ele>
        <time>2015-03-17T09:45:07Z</time>
      </trkpt>
      <trkpt lat="49.09323" lon="6.9438">
        <ele>231</ele>
        <time>2015-03-17T09:45:12Z</time>
      </trkpt>
      <trkpt lat="49.0933" lon="6.94379">
        <ele>231</ele>
        <time>2015-03-17T09:45:17Z</time>
      </trkpt>
      <trkpt lat="49.09337" lon="6.94378">
        <ele>229</ele>
        <time>2015-03-17T09:45:22Z</time>
      </trkpt>
      <trkpt lat="49.09351" lon="6.94377">
        <ele>229</ele>
        <time>2015-03-17T09:45:32Z</time>
      </trkpt>
      <trkpt lat="49.09358" lon="6.94377">
        <ele>230</ele>
        <time>2015-03-17T09:45:37Z</time>
      </trkpt>
      <trkpt lat="49.09365" lon="6.94377">
        <ele>230</ele>
        <time>2015-03-17T09:45:42Z</time>
      </trkpt>
      <trkpt lat="49.09375" lon="6.94372">
        <ele>232</ele>
        <time>2015-03-17T09:45:47Z</time>
      </trkpt>
      <trkpt lat="49.09382" lon="6.94365">
        <ele>232</ele>
        <time>2015-03-17T09:45:52Z</time>
      </trkpt>
      <trkpt lat="49.09386" lon="6.94357">
        <ele>228</ele>
        <time>2015-03-17T09:45:57Z</time>
      </trkpt>
      <trkpt lat="49.0939" lon="6.94337">
        <ele>229</ele>
        <time>2015-03-17T09:46:07Z</time>
      </trkpt>
      <trkpt lat="49.09392" lon="6.94325">
        <ele>228</ele>
        <time>2015-03-17T09:46:12Z</time>
      </trkpt>
      <trkpt lat="49.09391" lon="6.94312">
        <ele>229</ele>
        <time>2015-03-17T09:46:17Z</time>
      </trkpt>
      <trkpt lat="49.09391" lon="6.94301">
        <ele>230</ele>
        <time>2015-03-17T09:46:22Z</time>
      </trkpt>
      <trkpt lat="49.0939" lon="6.94288">
        <ele>229</ele>
        <time>2015-03-17T09:46:27Z</time>
      </trkpt>
      <trkpt lat="49.09386" lon="6.94266">
        <ele>227</ele>
        <time>2015-03-17T09:46:37Z</time>
      </trkpt>
      <trkpt lat="49.09384" lon="6.94255">
        <ele>228</ele>
        <time>2015-03-17T09:46:42Z</time>
      </trkpt>
      <trkpt lat="49.09383" lon="6.94245">
        <ele>225</ele>
        <time>2015-03-17T09:46:47Z</time>
      </trkpt>
      <trkpt lat="49.09382" lon="6.94229">
        <ele>221</ele>
        <time>2015-03-17T09:46:57Z</time>
      </trkpt>
      <trkpt lat="49.09381" lon="6.9422">
        <ele>220</ele>
        <time>2015-03-17T09:47:02Z</time>
      </trkpt>
      <trkpt lat="49.09381" lon="6.94212">
        <ele>218</ele>
        <time>2015-03-17T09:47:07Z</time>
      </trkpt>
      <trkpt lat="49.09382" lon="6.94192">
        <ele>218</ele>
        <time>2015-03-17T09:47:17Z</time>
      </trkpt>
      <trkpt lat="49.09382" lon="6.94179">
        <ele>221</ele>
        <time>2015-03-17T09:47:22Z</time>
      </trkpt>
      <trkpt lat="49.09384" lon="6.94167">
        <ele>220</ele>
        <time>2015-03-17T09:47:27Z</time>
      </trkpt>
      <trkpt lat="49.09384" lon="6.94155">
        <ele>223</ele>
        <time>2015-03-17T09:47:32Z</time>
      </trkpt>
      <trkpt lat="49.09385" lon="6.94145">
        <ele>222</ele>
        <time>2015-03-17T09:47:37Z</time>
      </trkpt>
      <trkpt lat="49.09384" lon="6.94134">
        <ele>225</ele>
        <time>2015-03-17T09:47:42Z</time>
      </trkpt>
      <trkpt lat="49.09385" lon="6.94124">
        <ele>224</ele>
        <time>2015-03-17T09:47:47Z</time>
      </trkpt>
      <trkpt lat="49.09385" lon="6.94112">
        <ele>229</ele>
        <time>2015-03-17T09:47:52Z</time>
      </trkpt>
      <trkpt lat="49.09385" lon="6.94099">
        <ele>232</ele>
        <time>2015-03-17T09:47:57Z</time>
      </trkpt>
      <trkpt lat="49.09385" lon="6.94088">
        <ele>232</ele>
        <time>2015-03-17T09:48:02Z</time>
      </trkpt>
      <trkpt lat="49.09386" lon="6.94076">
        <ele>236</ele>
        <time>2015-03-17T09:48:07Z</time>
      </trkpt>
      <trkpt lat="49.09386" lon="6.94066">
        <ele>234</ele>
        <time>2015-03-17T09:48:12Z</time>
      </trkpt>
      <trkpt lat="49.09385" lon="6.94056">
        <ele>233</ele>
        <time>2015-03-17T09:48:17Z</time>
      </trkpt>
      <trkpt lat="49.09387" lon="6.94038">
        <ele>232</ele>
        <time>2015-03-17T09:48:27Z</time>
      </trkpt>
      <trkpt lat="49.09385" lon="6.9403">
        <ele>228</ele>
        <time>2015-03-17T09:48:32Z</time>
      </trkpt>
      <trkpt lat="49.09383" lon="6.94016">
        <ele>227</ele>
        <time>2015-03-17T09:48:42Z</time>
      </trkpt>
      <trkpt lat="49.09385" lon="6.94005">
        <ele>228</ele>
        <time>2015-03-17T09:48:47Z</time>
      </trkpt>
      <trkpt lat="49.09389" lon="6.93998">
        <ele>229</ele>
        <time>2015-03-17T09:48:52Z</time>
      </trkpt>
      <trkpt lat="49.09394" lon="6.93997">
        <ele>230</ele>
        <time>2015-03-17T09:48:57Z</time>
      </trkpt>
      <trkpt lat="49.09402" lon="6.93991">
        <ele>228</ele>
        <time>2015-03-17T09:49:07Z</time>
      </trkpt>
      <trkpt lat="49.09407" lon="6.93988">
        <ele>226</ele>
        <time>2015-03-17T09:49:12Z</time>
      </trkpt>
      <trkpt lat="49.09413" lon="6.93986">
        <ele>225</ele>
        <time>2015-03-17T09:49:17Z</time>
      </trkpt>
      <trkpt lat="49.09423" lon="6.93983">
        <ele>224</ele>
        <time>2015-03-17T09:49:22Z</time>
      </trkpt>
      <trkpt lat="49.0943" lon="6.93979">
        <ele>224</ele>
        <time>2015-03-17T09:49:27Z</time>
      </trkpt>
      <trkpt lat="49.09439" lon="6.93975">
        <ele>226</ele>
        <time>2015-03-17T09:49:32Z</time>
      </trkpt>
      <trkpt lat="49.09456" lon="6.93967">
        <ele>233</ele>
        <time>2015-03-17T09:49:42Z</time>
      </trkpt>
      <trkpt lat="49.09465" lon="6.93963">
        <ele>236</ele>
        <time>2015-03-17T09:49:47Z</time>
      </trkpt>
      <trkpt lat="49.0947" lon="6.9396">
        <ele>236</ele>
        <time>2015-03-17T09:49:52Z</time>
      </trkpt>
      <trkpt lat="49.09476" lon="6.93957">
        <ele>237</ele>
        <time>2015-03-17T09:49:57Z</time>
      </trkpt>
      <trkpt lat="49.09481" lon="6.93954">
        <ele>241</ele>
        <time>2015-03-17T09:50:02Z</time>
      </trkpt>
      <trkpt lat="49.09487" lon="6.93952">
        <ele>240</ele>
        <time>2015-03-17T09:50:07Z</time>
      </trkpt>
      <trkpt lat="49.09493" lon="6.9395">
        <ele>241</ele>
        <time>2015-03-17T09:50:12Z</time>
      </trkpt>
      <trkpt lat="49.09503" lon="6.93943">
        <ele>243</ele>
        <time>2015-03-17T09:50:22Z</time>
      </trkpt>
      <trkpt lat="49.09508" lon="6.9394">
        <ele>244</ele>
        <time>2015-03-17T09:50:27Z</time>
      </trkpt>
      <trkpt lat="49.09517" lon="6.93936">
        <ele>241</ele>
        <time>2015-03-17T09:50:37Z</time>
      </trkpt>
      <trkpt lat="49.0952" lon="6.93931">
        <ele>245</ele>
        <time>2015-03-17T09:50:42Z</time>
      </trkpt>
      <trkpt lat="49.09524" lon="6.93926">
        <ele>246</ele>
        <time>2015-03-17T09:50:47Z</time>
      </trkpt>
      <trkpt lat="49.09529" lon="6.9392">
        <ele>246</ele>
        <time>2015-03-17T09:50:52Z</time>
      </trkpt>
      <trkpt lat="49.09533" lon="6.93914">
        <ele>246</ele>
        <time>2015-03-17T09:50:57Z</time>
      </trkpt>
      <trkpt lat="49.09538" lon="6.93909">
        <ele>246</ele>
        <time>2015-03-17T09:51:02Z</time>
      </trkpt>
      <trkpt lat="49.09544" lon="6.93902">
        <ele>245</ele>
        <time>2015-03-17T09:51:07Z</time>
      </trkpt>
      <trkpt lat="49.09551" lon="6.93895">
        <ele>246</ele>
        <time>2015-03-17T09:51:12Z</time>
      </trkpt>
      <trkpt lat="49.09567" lon="6.93879">
        <ele>248</ele>
        <time>2015-03-17T09:51:22Z</time>
      </trkpt>
      <trkpt lat="49.09575" lon="6.9387">
        <ele>251</ele>
        <time>2015-03-17T09:51:27Z</time>
      </trkpt>
      <trkpt lat="49.09581" lon="6.93861">
        <ele>252</ele>
        <time>2015-03-17T09:51:32Z</time>
      </trkpt>
      <trkpt lat="49.09586" lon="6.93851">
        <ele>252</ele>
        <time>2015-03-17T09:51:37Z</time>
      </trkpt>
      <trkpt lat="49.09592" lon="6.93843">
        <ele>252</ele>
        <time>2015-03-17T09:51:42Z</time>
      </trkpt>
      <trkpt lat="49.09596" lon="6.93833">
        <ele>251</ele>
        <time>2015-03-17T09:51:47Z</time>
      </trkpt>
      <trkpt lat="49.09599" lon="6.93821">
        <ele>250</ele>
        <time>2015-03-17T09:51:52Z</time>
      </trkpt>
      <trkpt lat="49.096" lon="6.93807">
        <ele>257</ele>
        <time>2015-03-17T09:52:02Z</time>
      </trkpt>
      <trkpt lat="49.09604" lon="6.93778">
        <ele>263</ele>
        <time>2015-03-17T09:52:12Z</time>
      </trkpt>
      <trkpt lat="49.09605" lon="6.93771">
        <ele>262</ele>
        <time>2015-03-17T09:52:17Z</time>
      </trkpt>
      <trkpt lat="49.09604" lon="6.93758">
        <ele>261</ele>
        <time>2015-03-17T09:52:32Z</time>
      </trkpt>
      <trkpt lat="49.09603" lon="6.93749">
        <ele>260</ele>
        <time>2015-03-17T09:52:37Z</time>
      </trkpt>
      <trkpt lat="49.09601" lon="6.93739">
        <ele>260</ele>
        <time>2015-03-17T09:52:42Z</time>
      </trkpt>
      <trkpt lat="49.09602" lon="6.93723">
        <ele>264</ele>
        <time>2015-03-17T09:52:47Z</time>
      </trkpt>
      <trkpt lat="49.096" lon="6.93713">
        <ele>262</ele>
        <time>2015-03-17T09:52:52Z</time>
      </trkpt>
      <trkpt lat="49.09594" lon="6.93692">
        <ele>262</ele>
        <time>2015-03-17T09:54:27Z</time>
      </trkpt>
      <trkpt lat="49.09594" lon="6.93685">
        <ele>262</ele>
        <time>2015-03-17T09:54:32Z</time>
      </trkpt>
      <trkpt lat="49.09592" lon="6.93667">
        <ele>263</ele>
        <time>2015-03-17T09:54:42Z</time>
      </trkpt>
      <trkpt lat="49.0959" lon="6.93658">
        <ele>262</ele>
        <time>2015-03-17T09:54:47Z</time>
      </trkpt>
      <trkpt lat="49.09586" lon="6.93638">
        <ele>261</ele>
        <time>2015-03-17T09:54:57Z</time>
      </trkpt>
      <trkpt lat="49.09584" lon="6.93628">
        <ele>262</ele>
        <time>2015-03-17T09:55:02Z</time>
      </trkpt>
      <trkpt lat="49.09579" lon="6.93611">
        <ele>261</ele>
        <time>2015-03-17T09:55:12Z</time>
      </trkpt>
      <trkpt lat="49.09575" lon="6.93591">
        <ele>263</ele>
        <time>2015-03-17T09:55:22Z</time>
      </trkpt>
      <trkpt lat="49.09572" lon="6.93583">
        <ele>262</ele>
        <time>2015-03-17T09:55:27Z</time>
      </trkpt>
      <trkpt lat="49.0957" lon="6.93575">
        <ele>262</ele>
        <time>2015-03-17T09:55:32Z</time>
      </trkpt>
      <trkpt lat="49.09565" lon="6.93556">
        <ele>261</ele>
        <time>2015-03-17T09:55:42Z</time>
      </trkpt>
      <trkpt lat="49.09562" lon="6.93547">
        <ele>261</ele>
        <time>2015-03-17T09:55:47Z</time>
      </trkpt>
      <trkpt lat="49.0956" lon="6.93538">
        <ele>261</ele>
        <time>2015-03-17T09:55:52Z</time>
      </trkpt>
      <trkpt lat="49.09558" lon="6.9353">
        <ele>260</ele>
        <time>2015-03-17T09:55:57Z</time>
      </trkpt>
      <trkpt lat="49.09557" lon="6.93521">
        <ele>260</ele>
        <time>2015-03-17T09:56:02Z</time>
      </trkpt>
      <trkpt lat="49.09558" lon="6.93512">
        <ele>259</ele>
        <time>2015-03-17T09:56:07Z</time>
      </trkpt>
      <trkpt lat="49.09568" lon="6.93498">
        <ele>258</ele>
        <time>2015-03-17T09:56:17Z</time>
      </trkpt>
      <trkpt lat="49.09575" lon="6.93495">
        <ele>261</ele>
        <time>2015-03-17T09:56:22Z</time>
      </trkpt>
      <trkpt lat="49.09581" lon="6.93494">
        <ele>261</ele>
        <time>2015-03-17T09:56:27Z</time>
      </trkpt>
      <trkpt lat="49.09588" lon="6.93494">
        <ele>263</ele>
        <time>2015-03-17T09:56:32Z</time>
      </trkpt>
      <trkpt lat="49.09595" lon="6.93493">
        <ele>261</ele>
        <time>2015-03-17T09:56:37Z</time>
      </trkpt>
      <trkpt lat="49.09601" lon="6.93489">
        <ele>259</ele>
        <time>2015-03-17T09:56:42Z</time>
      </trkpt>
      <trkpt lat="49.09607" lon="6.93488">
        <ele>259</ele>
        <time>2015-03-17T09:56:47Z</time>
      </trkpt>
      <trkpt lat="49.09613" lon="6.93487">
        <ele>259</ele>
        <time>2015-03-17T09:56:52Z</time>
      </trkpt>
      <trkpt lat="49.09619" lon="6.93482">
        <ele>258</ele>
        <time>2015-03-17T09:56:57Z</time>
      </trkpt>
      <trkpt lat="49.09625" lon="6.93477">
        <ele>257</ele>
        <time>2015-03-17T09:57:02Z</time>
      </trkpt>
      <trkpt lat="49.09631" lon="6.93475">
        <ele>257</ele>
        <time>2015-03-17T09:57:07Z</time>
      </trkpt>
      <trkpt lat="49.09641" lon="6.93473">
        <ele>255</ele>
        <time>2015-03-17T09:57:17Z</time>
      </trkpt>
      <trkpt lat="49.09645" lon="6.93471">
        <ele>254</ele>
        <time>2015-03-17T09:57:22Z</time>
      </trkpt>
      <trkpt lat="49.09654" lon="6.93471">
        <ele>254</ele>
        <time>2015-03-17T09:57:32Z</time>
      </trkpt>
      <trkpt lat="49.09661" lon="6.93473">
        <ele>254</ele>
        <time>2015-03-17T09:57:42Z</time>
      </trkpt>
      <trkpt lat="49.09668" lon="6.93474">
        <ele>252</ele>
        <time>2015-03-17T09:57:47Z</time>
      </trkpt>
      <trkpt lat="49.09676" lon="6.93477">
        <ele>251</ele>
        <time>2015-03-17T09:57:52Z</time>
      </trkpt>
      <trkpt lat="49.09685" lon="6.9348">
        <ele>250</ele>
        <time>2015-03-17T09:57:57Z</time>
      </trkpt>
      <trkpt lat="49.09691" lon="6.93481">
        <ele>251</ele>
        <time>2015-03-17T09:58:02Z</time>
      </trkpt>
      <trkpt lat="49.09699" lon="6.93486">
        <ele>250</ele>
        <time>2015-03-17T09:58:07Z</time>
      </trkpt>
      <trkpt lat="49.09705" lon="6.93491">
        <ele>247</ele>
        <time>2015-03-17T09:58:12Z</time>
      </trkpt>
      <trkpt lat="49.09712" lon="6.93493">
        <ele>246</ele>
        <time>2015-03-17T09:58:17Z</time>
      </trkpt>
      <trkpt lat="49.0972" lon="6.93497">
        <ele>245</ele>
        <time>2015-03-17T09:58:22Z</time>
      </trkpt>
      <trkpt lat="49.09728" lon="6.935">
        <ele>247</ele>
        <time>2015-03-17T09:58:27Z</time>
      </trkpt>
      <trkpt lat="49.09736" lon="6.93502">
        <ele>248</ele>
        <time>2015-03-17T09:58:32Z</time>
      </trkpt>
      <trkpt lat="49.09752" lon="6.9351">
        <ele>252</ele>
        <time>2015-03-17T09:58:42Z</time>
      </trkpt>
      <trkpt lat="49.09761" lon="6.93518">
        <ele>254</ele>
        <time>2015-03-17T09:58:47Z</time>
      </trkpt>
      <trkpt lat="49.09768" lon="6.93519">
        <ele>254</ele>
        <time>2015-03-17T09:58:52Z</time>
      </trkpt>
      <trkpt lat="49.09773" lon="6.93512">
        <ele>252</ele>
        <time>2015-03-17T09:58:57Z</time>
      </trkpt>
      <trkpt lat="49.09778" lon="6.93505">
        <ele>250</ele>
        <time>2015-03-17T09:59:02Z</time>
      </trkpt>
      <trkpt lat="49.09784" lon="6.93496">
        <ele>250</ele>
        <time>2015-03-17T09:59:07Z</time>
      </trkpt>
      <trkpt lat="49.09789" lon="6.9349">
        <ele>249</ele>
        <time>2015-03-17T09:59:12Z</time>
      </trkpt>
      <trkpt lat="49.09795" lon="6.93485">
        <ele>247</ele>
        <time>2015-03-17T09:59:17Z</time>
      </trkpt>
      <trkpt lat="49.09807" lon="6.93478">
        <ele>248</ele>
        <time>2015-03-17T09:59:27Z</time>
      </trkpt>
      <trkpt lat="49.09821" lon="6.93471">
        <ele>249</ele>
        <time>2015-03-17T09:59:37Z</time>
      </trkpt>
      <trkpt lat="49.09827" lon="6.93467">
        <ele>250</ele>
        <time>2015-03-17T09:59:42Z</time>
      </trkpt>
      <trkpt lat="49.09834" lon="6.93463">
        <ele>252</ele>
        <time>2015-03-17T09:59:47Z</time>
      </trkpt>
      <trkpt lat="49.09841" lon="6.9346">
        <ele>252</ele>
        <time>2015-03-17T09:59:52Z</time>
      </trkpt>
      <trkpt lat="49.09848" lon="6.93456">
        <ele>251</ele>
        <time>2015-03-17T09:59:57Z</time>
      </trkpt>
      <trkpt lat="49.09861" lon="6.93448">
        <ele>253</ele>
        <time>2015-03-17T10:00:07Z</time>
      </trkpt>
      <trkpt lat="49.09868" lon="6.93445">
        <ele>253</ele>
        <time>2015-03-17T10:00:12Z</time>
      </trkpt>
      <trkpt lat="49.09873" lon="6.93441">
        <ele>253</ele>
        <time>2015-03-17T10:00:17Z</time>
      </trkpt>
      <trkpt lat="49.09883" lon="6.93439">
        <ele>254</ele>
        <time>2015-03-17T10:00:27Z</time>
      </trkpt>
      <trkpt lat="49.09888" lon="6.93439">
        <ele>254</ele>
        <time>2015-03-17T10:00:32Z</time>
      </trkpt>
      <trkpt lat="49.09896" lon="6.93431">
        <ele>256</ele>
        <time>2015-03-17T10:00:42Z</time>
      </trkpt>
      <trkpt lat="49.09901" lon="6.93428">
        <ele>256</ele>
        <time>2015-03-17T10:00:47Z</time>
      </trkpt>
      <trkpt lat="49.09908" lon="6.93426">
        <ele>257</ele>
        <time>2015-03-17T10:00:52Z</time>
      </trkpt>
      <trkpt lat="49.09914" lon="6.93427">
        <ele>253</ele>
        <time>2015-03-17T10:00:57Z</time>
      </trkpt>
      <trkpt lat="49.09917" lon="6.93428">
        <ele>251</ele>
        <time>2015-03-17T10:01:12Z</time>
      </trkpt>
      <trkpt lat="49.09919" lon="6.93425">
        <ele>250</ele>
        <time>2015-03-17T10:01:17Z</time>
      </trkpt>
      <trkpt lat="49.09924" lon="6.93426">
        <ele>248</ele>
        <time>2015-03-17T10:02:02Z</time>
      </trkpt>
      <trkpt lat="49.09929" lon="6.93425">
        <ele>247</ele>
        <time>2015-03-17T10:02:12Z</time>
      </trkpt>
      <trkpt lat="49.09936" lon="6.93422">
        <ele>248</ele>
        <time>2015-03-17T10:02:17Z</time>
      </trkpt>
      <trkpt lat="49.09945" lon="6.93423">
        <ele>248</ele>
        <time>2015-03-17T10:02:22Z</time>
      </trkpt>
      <trkpt lat="49.0995" lon="6.93422">
        <ele>245</ele>
        <time>2015-03-17T10:02:27Z</time>
      </trkpt>
      <trkpt lat="49.09957" lon="6.9342">
        <ele>244</ele>
        <time>2015-03-17T10:02:32Z</time>
      </trkpt>
      <trkpt lat="49.09964" lon="6.93421">
        <ele>245</ele>
        <time>2015-03-17T10:02:37Z</time>
      </trkpt>
      <trkpt lat="49.0997" lon="6.93425">
        <ele>244</ele>
        <time>2015-03-17T10:02:42Z</time>
      </trkpt>
      <trkpt lat="49.09976" lon="6.93431">
        <ele>246</ele>
        <time>2015-03-17T10:02:47Z</time>
      </trkpt>
      <trkpt lat="49.09983" lon="6.93435">
        <ele>247</ele>
        <time>2015-03-17T10:02:52Z</time>
      </trkpt>
      <trkpt lat="49.09988" lon="6.93439">
        <ele>245</ele>
        <time>2015-03-17T10:02:57Z</time>
      </trkpt>
      <trkpt lat="49.09995" lon="6.93441">
        <ele>248</ele>
        <time>2015-03-17T10:03:02Z</time>
      </trkpt>
      <trkpt lat="49.10004" lon="6.93446">
        <ele>246</ele>
        <time>2015-03-17T10:03:07Z</time>
      </trkpt>
      <trkpt lat="49.1001" lon="6.93449">
        <ele>248</ele>
        <time>2015-03-17T10:03:12Z</time>
      </trkpt>
      <trkpt lat="49.10016" lon="6.93452">
        <ele>247</ele>
        <time>2015-03-17T10:03:17Z</time>
      </trkpt>
      <trkpt lat="49.10023" lon="6.93456">
        <ele>247</ele>
        <time>2015-03-17T10:03:22Z</time>
      </trkpt>
      <trkpt lat="49.1003" lon="6.93459">
        <ele>248</ele>
        <time>2015-03-17T10:03:27Z</time>
      </trkpt>
      <trkpt lat="49.1004" lon="6.93463">
        <ele>250</ele>
        <time>2015-03-17T10:03:32Z</time>
      </trkpt>
      <trkpt lat="49.10048" lon="6.93467">
        <ele>250</ele>
        <time>2015-03-17T10:03:37Z</time>
      </trkpt>
      <trkpt lat="49.10064" lon="6.93472">
        <ele>251</ele>
        <time>2015-03-17T10:03:47Z</time>
      </trkpt>
      <trkpt lat="49.10075" lon="6.9348">
        <ele>251</ele>
        <time>2015-03-17T10:03:57Z</time>
      </trkpt>
      <trkpt lat="49.10081" lon="6.93484">
        <ele>253</ele>
        <time>2015-03-17T10:04:02Z</time>
      </trkpt>
      <trkpt lat="49.10088" lon="6.93488">
        <ele>254</ele>
        <time>2015-03-17T10:04:07Z</time>
      </trkpt>
      <trkpt lat="49.10094" lon="6.93491">
        <ele>253</ele>
        <time>2015-03-17T10:04:12Z</time>
      </trkpt>
      <trkpt lat="49.10099" lon="6.93495">
        <ele>252</ele>
        <time>2015-03-17T10:04:17Z</time>
      </trkpt>
      <trkpt lat="49.10107" lon="6.93498">
        <ele>250</ele>
        <time>2015-03-17T10:04:27Z</time>
      </trkpt>
      <trkpt lat="49.10114" lon="6.93499">
        <ele>252</ele>
        <time>2015-03-17T10:04:32Z</time>
      </trkpt>
      <trkpt lat="49.10121" lon="6.93502">
        <ele>254</ele>
        <time>2015-03-17T10:04:37Z</time>
      </trkpt>
      <trkpt lat="49.10127" lon="6.93504">
        <ele>254</ele>
        <time>2015-03-17T10:04:42Z</time>
      </trkpt>
      <trkpt lat="49.10135" lon="6.93504">
        <ele>251</ele>
        <time>2015-03-17T10:04:52Z</time>
      </trkpt>
      <trkpt lat="49.10143" lon="6.93502">
        <ele>249</ele>
        <time>2015-03-17T10:05:02Z</time>
      </trkpt>
      <trkpt lat="49.10159" lon="6.935">
        <ele>251</ele>
        <time>2015-03-17T10:05:12Z</time>
      </trkpt>
      <trkpt lat="49.10164" lon="6.93498">
        <ele>250</ele>
        <time>2015-03-17T10:05:17Z</time>
      </trkpt>
      <trkpt lat="49.1017" lon="6.93498">
        <ele>250</ele>
        <time>2015-03-17T10:05:22Z</time>
      </trkpt>
      <trkpt lat="49.10176" lon="6.93497">
        <ele>249</ele>
        <time>2015-03-17T10:05:27Z</time>
      </trkpt>
      <trkpt lat="49.10182" lon="6.93497">
        <ele>248</ele>
        <time>2015-03-17T10:05:32Z</time>
      </trkpt>
      <trkpt lat="49.10188" lon="6.93495">
        <ele>249</ele>
        <time>2015-03-17T10:05:37Z</time>
      </trkpt>
      <trkpt lat="49.10196" lon="6.93497">
        <ele>253</ele>
        <time>2015-03-17T10:05:42Z</time>
      </trkpt>
      <trkpt lat="49.10206" lon="6.93496">
        <ele>259</ele>
        <time>2015-03-17T10:05:47Z</time>
      </trkpt>
      <trkpt lat="49.10215" lon="6.93498">
        <ele>260</ele>
        <time>2015-03-17T10:05:52Z</time>
      </trkpt>
      <trkpt lat="49.10223" lon="6.935">
        <ele>260</ele>
        <time>2015-03-17T10:05:57Z</time>
      </trkpt>
      <trkpt lat="49.10231" lon="6.93502">
        <ele>260</ele>
        <time>2015-03-17T10:06:02Z</time>
      </trkpt>
      <trkpt lat="49.10238" lon="6.93505">
        <ele>261</ele>
        <time>2015-03-17T10:06:07Z</time>
      </trkpt>
      <trkpt lat="49.10246" lon="6.93508">
        <ele>264</ele>
        <time>2015-03-17T10:06:12Z</time>
      </trkpt>
      <trkpt lat="49.10254" lon="6.93511">
        <ele>265</ele>
        <time>2015-03-17T10:06:17Z</time>
      </trkpt>
      <trkpt lat="49.1026" lon="6.93514">
        <ele>265</ele>
        <time>2015-03-17T10:06:22Z</time>
      </trkpt>
      <trkpt lat="49.10267" lon="6.93516">
        <ele>265</ele>
        <time>2015-03-17T10:06:27Z</time>
      </trkpt>
      <trkpt lat="49.10273" lon="6.93518">
        <ele>264</ele>
        <time>2015-03-17T10:06:32Z</time>
      </trkpt>
      <trkpt lat="49.1028" lon="6.9352">
        <ele>264</ele>
        <time>2015-03-17T10:06:37Z</time>
      </trkpt>
      <trkpt lat="49.10286" lon="6.93521">
        <ele>264</ele>
        <time>2015-03-17T10:06:42Z</time>
      </trkpt>
      <trkpt lat="49.10293" lon="6.93522">
        <ele>265</ele>
        <time>2015-03-17T10:06:47Z</time>
      </trkpt>
      <trkpt lat="49.103" lon="6.93524">
        <ele>265</ele>
        <time>2015-03-17T10:06:52Z</time>
      </trkpt>
      <trkpt lat="49.10308" lon="6.93527">
        <ele>267</ele>
        <time>2015-03-17T10:06:57Z</time>
      </trkpt>
      <trkpt lat="49.10315" lon="6.93529">
        <ele>268</ele>
        <time>2015-03-17T10:07:02Z</time>
      </trkpt>
      <trkpt lat="49.10322" lon="6.93533">
        <ele>267</ele>
        <time>2015-03-17T10:07:07Z</time>
      </trkpt>
      <trkpt lat="49.10329" lon="6.93536">
        <ele>268</ele>
        <time>2015-03-17T10:07:12Z</time>
      </trkpt>
      <trkpt lat="49.10336" lon="6.9354">
        <ele>268</ele>
        <time>2015-03-17T10:07:17Z</time>
      </trkpt>
      <trkpt lat="49.10348" lon="6.93544">
        <ele>267</ele>
        <time>2015-03-17T10:07:27Z</time>
      </trkpt>
      <trkpt lat="49.10355" lon="6.93548">
        <ele>266</ele>
        <time>2015-03-17T10:07:32Z</time>
      </trkpt>
      <trkpt lat="49.10361" lon="6.93551">
        <ele>265</ele>
        <time>2015-03-17T10:07:37Z</time>
      </trkpt>
      <trkpt lat="49.10367" lon="6.93553">
        <ele>265</ele>
        <time>2015-03-17T10:07:42Z</time>
      </trkpt>
      <trkpt lat="49.10372" lon="6.93559">
        <ele>263</ele>
        <time>2015-03-17T10:07:52Z</time>
      </trkpt>
      <trkpt lat="49.10382" lon="6.93563">
        <ele>265</ele>
        <time>2015-03-17T10:08:02Z</time>
      </trkpt>
      <trkpt lat="49.10381" lon="6.93563">
        <ele>265</ele>
        <time>2015-03-17T10:08:37Z</time>
      </trkpt>
    </trkseg>
  </trk>
</gpx>